<?xml version="1.0" encoding="UTF-8" standalone="no" ?>
<gpx xmlns="http://www.topografix.com/GPX/1/1" xmlns:xsi="http://www.w3.org/2001/XMLSchema-instance" xsi:schemaLocation="http://www.topografix.com/GPX/1/1 http://www.topografix.com/GPX/1/1/gpx.xsd" version="1.1" creator="VisuGPX - https://www.visugpx.com">
  <metadata>
    <name>cluny tramyes</name>
    <desc><![CDATA[debut de la randonnée sur le chemin de compostelle ]]></desc>
  </metadata>
  <trk>
    <name><![CDATA[VC_01_CLUNY_TRAMAYES]]></name>
    <desc><![CDATA[aout 2016_Isabelle DUCHENE]]></desc>
    <trkseg>
      <trkpt lat="46.43374" lon="4.65819">
        <ele>243.83</ele>
        <time>2016-08-11T12:38:56Z</time>
      </trkpt>
      <trkpt lat="46.43366" lon="4.65817">
        <ele>241.43</ele>
        <time>2016-08-11T12:39:13Z</time>
      </trkpt>
      <trkpt lat="46.43342" lon="4.65796">
        <ele>243.35</ele>
        <time>2016-08-11T12:39:31Z</time>
      </trkpt>
      <trkpt lat="46.43336" lon="4.65792">
        <ele>250.56</ele>
        <time>2016-08-11T12:39:46Z</time>
      </trkpt>
      <trkpt lat="46.43333" lon="4.65791">
        <ele>252</ele>
        <time>2016-08-11T12:39:54Z</time>
      </trkpt>
      <trkpt lat="46.4333" lon="4.6579">
        <ele>250.08</ele>
        <time>2016-08-11T12:39:58Z</time>
      </trkpt>
      <trkpt lat="46.43326" lon="4.65789">
        <ele>248.64</ele>
        <time>2016-08-11T12:40:00Z</time>
      </trkpt>
      <trkpt lat="46.43317" lon="4.65786">
        <ele>239.99</ele>
        <time>2016-08-11T12:40:11Z</time>
      </trkpt>
      <trkpt lat="46.43311" lon="4.65783">
        <ele>237.58</ele>
        <time>2016-08-11T12:40:15Z</time>
      </trkpt>
      <trkpt lat="46.43297" lon="4.65774">
        <ele>236.14</ele>
        <time>2016-08-11T12:40:30Z</time>
      </trkpt>
      <trkpt lat="46.43292" lon="4.6577">
        <ele>238.54</ele>
        <time>2016-08-11T12:40:38Z</time>
      </trkpt>
      <trkpt lat="46.4329" lon="4.65769">
        <ele>239.02</ele>
        <time>2016-08-11T12:40:40Z</time>
      </trkpt>
      <trkpt lat="46.43284" lon="4.65767">
        <ele>241.43</ele>
        <time>2016-08-11T12:40:46Z</time>
      </trkpt>
      <trkpt lat="46.43281" lon="4.65767">
        <ele>243.35</ele>
        <time>2016-08-11T12:40:48Z</time>
      </trkpt>
      <trkpt lat="46.4327" lon="4.65757">
        <ele>249.6</ele>
        <time>2016-08-11T12:41:03Z</time>
      </trkpt>
      <trkpt lat="46.43264" lon="4.65746">
        <ele>253.44</ele>
        <time>2016-08-11T12:41:18Z</time>
      </trkpt>
      <trkpt lat="46.43253" lon="4.65723">
        <ele>257.29</ele>
        <time>2016-08-11T12:41:35Z</time>
      </trkpt>
      <trkpt lat="46.43246" lon="4.65711">
        <ele>261.62</ele>
        <time>2016-08-11T12:41:50Z</time>
      </trkpt>
      <trkpt lat="46.43231" lon="4.6569">
        <ele>265.94</ele>
        <time>2016-08-11T12:42:56Z</time>
      </trkpt>
      <trkpt lat="46.43219" lon="4.65672">
        <ele>265.46</ele>
        <time>2016-08-11T12:43:09Z</time>
      </trkpt>
      <trkpt lat="46.43208" lon="4.65655">
        <ele>265.46</ele>
        <time>2016-08-11T12:43:22Z</time>
      </trkpt>
      <trkpt lat="46.43195" lon="4.6563">
        <ele>269.79</ele>
        <time>2016-08-11T12:43:41Z</time>
      </trkpt>
      <trkpt lat="46.43183" lon="4.6561">
        <ele>271.23</ele>
        <time>2016-08-11T12:43:55Z</time>
      </trkpt>
      <trkpt lat="46.4317" lon="4.65588">
        <ele>277.48</ele>
        <time>2016-08-11T12:44:11Z</time>
      </trkpt>
      <trkpt lat="46.43159" lon="4.65569">
        <ele>281.8</ele>
        <time>2016-08-11T12:44:24Z</time>
      </trkpt>
      <trkpt lat="46.43146" lon="4.6555">
        <ele>284.21</ele>
        <time>2016-08-11T12:44:38Z</time>
      </trkpt>
      <trkpt lat="46.43132" lon="4.65526">
        <ele>287.09</ele>
        <time>2016-08-11T12:44:55Z</time>
      </trkpt>
      <trkpt lat="46.43118" lon="4.655">
        <ele>286.13</ele>
        <time>2016-08-11T12:45:12Z</time>
      </trkpt>
      <trkpt lat="46.43099" lon="4.65454">
        <ele>286.13</ele>
        <time>2016-08-11T12:45:40Z</time>
      </trkpt>
      <trkpt lat="46.43095" lon="4.65442">
        <ele>286.13</ele>
        <time>2016-08-11T12:45:47Z</time>
      </trkpt>
      <trkpt lat="46.43084" lon="4.65417">
        <ele>285.65</ele>
        <time>2016-08-11T12:46:01Z</time>
      </trkpt>
      <trkpt lat="46.43071" lon="4.65402">
        <ele>286.61</ele>
        <time>2016-08-11T12:46:13Z</time>
      </trkpt>
      <trkpt lat="46.43059" lon="4.65391">
        <ele>287.57</ele>
        <time>2016-08-11T12:46:25Z</time>
      </trkpt>
      <trkpt lat="46.4304" lon="4.65379">
        <ele>289.01</ele>
        <time>2016-08-11T12:46:40Z</time>
      </trkpt>
      <trkpt lat="46.43019" lon="4.65365">
        <ele>287.57</ele>
        <time>2016-08-11T12:46:56Z</time>
      </trkpt>
      <trkpt lat="46.42999" lon="4.65356">
        <ele>286.61</ele>
        <time>2016-08-11T12:47:11Z</time>
      </trkpt>
      <trkpt lat="46.42978" lon="4.65339">
        <ele>286.13</ele>
        <time>2016-08-11T12:47:28Z</time>
      </trkpt>
      <trkpt lat="46.42936" lon="4.65304">
        <ele>286.61</ele>
        <time>2016-08-11T12:48:02Z</time>
      </trkpt>
      <trkpt lat="46.42919" lon="4.6529">
        <ele>287.57</ele>
        <time>2016-08-11T12:48:16Z</time>
      </trkpt>
      <trkpt lat="46.42895" lon="4.65273">
        <ele>288.05</ele>
        <time>2016-08-11T12:48:35Z</time>
      </trkpt>
      <trkpt lat="46.42876" lon="4.65256">
        <ele>288.05</ele>
        <time>2016-08-11T12:48:51Z</time>
      </trkpt>
      <trkpt lat="46.42853" lon="4.65236">
        <ele>285.65</ele>
        <time>2016-08-11T12:49:09Z</time>
      </trkpt>
      <trkpt lat="46.42833" lon="4.65218">
        <ele>284.21</ele>
        <time>2016-08-11T12:49:27Z</time>
      </trkpt>
      <trkpt lat="46.42809" lon="4.65204">
        <ele>284.21</ele>
        <time>2016-08-11T12:49:46Z</time>
      </trkpt>
      <trkpt lat="46.42788" lon="4.65199">
        <ele>286.13</ele>
        <time>2016-08-11T12:50:02Z</time>
      </trkpt>
      <trkpt lat="46.42777" lon="4.65195">
        <ele>287.09</ele>
        <time>2016-08-11T12:50:09Z</time>
      </trkpt>
      <trkpt lat="46.42754" lon="4.65187">
        <ele>282.77</ele>
        <time>2016-08-11T12:50:27Z</time>
      </trkpt>
      <trkpt lat="46.42732" lon="4.6518">
        <ele>280.36</ele>
        <time>2016-08-11T12:50:43Z</time>
      </trkpt>
      <trkpt lat="46.42711" lon="4.65173">
        <ele>280.84</ele>
        <time>2016-08-11T12:50:58Z</time>
      </trkpt>
      <trkpt lat="46.4269" lon="4.65164">
        <ele>279.88</ele>
        <time>2016-08-11T12:51:14Z</time>
      </trkpt>
      <trkpt lat="46.42666" lon="4.65158">
        <ele>278.92</ele>
        <time>2016-08-11T12:51:31Z</time>
      </trkpt>
      <trkpt lat="46.42644" lon="4.65154">
        <ele>277.96</ele>
        <time>2016-08-11T12:51:47Z</time>
      </trkpt>
      <trkpt lat="46.42624" lon="4.65146">
        <ele>278.44</ele>
        <time>2016-08-11T12:52:02Z</time>
      </trkpt>
      <trkpt lat="46.42597" lon="4.65137">
        <ele>276.52</ele>
        <time>2016-08-11T12:52:21Z</time>
      </trkpt>
      <trkpt lat="46.42574" lon="4.65126">
        <ele>276.04</ele>
        <time>2016-08-11T12:52:39Z</time>
      </trkpt>
      <trkpt lat="46.42551" lon="4.65111">
        <ele>275.07</ele>
        <time>2016-08-11T12:52:57Z</time>
      </trkpt>
      <trkpt lat="46.42532" lon="4.651">
        <ele>276.52</ele>
        <time>2016-08-11T12:53:12Z</time>
      </trkpt>
      <trkpt lat="46.42508" lon="4.6509">
        <ele>275.56</ele>
        <time>2016-08-11T12:53:29Z</time>
      </trkpt>
      <trkpt lat="46.42489" lon="4.65092">
        <ele>272.67</ele>
        <time>2016-08-11T12:53:42Z</time>
      </trkpt>
      <trkpt lat="46.42465" lon="4.65097">
        <ele>272.67</ele>
        <time>2016-08-11T12:53:59Z</time>
      </trkpt>
      <trkpt lat="46.42457" lon="4.65098">
        <ele>272.67</ele>
        <time>2016-08-11T12:54:05Z</time>
      </trkpt>
      <trkpt lat="46.42427" lon="4.65101">
        <ele>273.15</ele>
        <time>2016-08-11T12:54:27Z</time>
      </trkpt>
      <trkpt lat="46.42404" lon="4.65095">
        <ele>273.15</ele>
        <time>2016-08-11T12:54:43Z</time>
      </trkpt>
      <trkpt lat="46.4238" lon="4.65087">
        <ele>275.07</ele>
        <time>2016-08-11T12:55:00Z</time>
      </trkpt>
      <trkpt lat="46.42357" lon="4.65081">
        <ele>274.59</ele>
        <time>2016-08-11T12:55:17Z</time>
      </trkpt>
      <trkpt lat="46.42338" lon="4.6507">
        <ele>272.19</ele>
        <time>2016-08-11T12:55:32Z</time>
      </trkpt>
      <trkpt lat="46.4233" lon="4.6507">
        <ele>272.67</ele>
        <time>2016-08-11T12:56:04Z</time>
      </trkpt>
      <trkpt lat="46.4231" lon="4.65075">
        <ele>272.19</ele>
        <time>2016-08-11T12:56:22Z</time>
      </trkpt>
      <trkpt lat="46.42296" lon="4.65092">
        <ele>270.27</ele>
        <time>2016-08-11T12:56:35Z</time>
      </trkpt>
      <trkpt lat="46.42277" lon="4.65121">
        <ele>266.9</ele>
        <time>2016-08-11T12:56:55Z</time>
      </trkpt>
      <trkpt lat="46.42268" lon="4.65135">
        <ele>265.94</ele>
        <time>2016-08-11T12:57:05Z</time>
      </trkpt>
      <trkpt lat="46.42249" lon="4.65158">
        <ele>264.02</ele>
        <time>2016-08-11T12:57:23Z</time>
      </trkpt>
      <trkpt lat="46.42227" lon="4.65172">
        <ele>263.06</ele>
        <time>2016-08-11T12:57:41Z</time>
      </trkpt>
      <trkpt lat="46.42202" lon="4.65173">
        <ele>258.25</ele>
        <time>2016-08-11T12:57:59Z</time>
      </trkpt>
      <trkpt lat="46.42177" lon="4.65172">
        <ele>254.89</ele>
        <time>2016-08-11T12:58:17Z</time>
      </trkpt>
      <trkpt lat="46.42159" lon="4.65168">
        <ele>253.93</ele>
        <time>2016-08-11T12:58:31Z</time>
      </trkpt>
      <trkpt lat="46.42149" lon="4.65167">
        <ele>254.41</ele>
        <time>2016-08-11T12:58:39Z</time>
      </trkpt>
      <trkpt lat="46.42126" lon="4.65172">
        <ele>254.89</ele>
        <time>2016-08-11T12:58:57Z</time>
      </trkpt>
      <trkpt lat="46.421" lon="4.65186">
        <ele>252.96</ele>
        <time>2016-08-11T12:59:17Z</time>
      </trkpt>
      <trkpt lat="46.42081" lon="4.65207">
        <ele>252</ele>
        <time>2016-08-11T12:59:34Z</time>
      </trkpt>
      <trkpt lat="46.42067" lon="4.65224">
        <ele>250.08</ele>
        <time>2016-08-11T12:59:47Z</time>
      </trkpt>
      <trkpt lat="46.42057" lon="4.65236">
        <ele>248.16</ele>
        <time>2016-08-11T12:59:57Z</time>
      </trkpt>
      <trkpt lat="46.42039" lon="4.65261">
        <ele>247.68</ele>
        <time>2016-08-11T13:00:15Z</time>
      </trkpt>
      <trkpt lat="46.42024" lon="4.65283">
        <ele>247.2</ele>
        <time>2016-08-11T13:00:30Z</time>
      </trkpt>
      <trkpt lat="46.4202" lon="4.65288">
        <ele>248.16</ele>
        <time>2016-08-11T13:00:34Z</time>
      </trkpt>
      <trkpt lat="46.42013" lon="4.65297">
        <ele>248.64</ele>
        <time>2016-08-11T13:00:41Z</time>
      </trkpt>
      <trkpt lat="46.41996" lon="4.65318">
        <ele>247.68</ele>
        <time>2016-08-11T13:00:57Z</time>
      </trkpt>
      <trkpt lat="46.41978" lon="4.65334">
        <ele>245.75</ele>
        <time>2016-08-11T13:01:12Z</time>
      </trkpt>
      <trkpt lat="46.4196" lon="4.65333">
        <ele>244.31</ele>
        <time>2016-08-11T13:01:26Z</time>
      </trkpt>
      <trkpt lat="46.41946" lon="4.65309">
        <ele>248.64</ele>
        <time>2016-08-11T13:01:41Z</time>
      </trkpt>
      <trkpt lat="46.41931" lon="4.653">
        <ele>252.96</ele>
        <time>2016-08-11T13:01:53Z</time>
      </trkpt>
      <trkpt lat="46.41914" lon="4.65313">
        <ele>253.44</ele>
        <time>2016-08-11T13:02:08Z</time>
      </trkpt>
      <trkpt lat="46.41896" lon="4.65329">
        <ele>252.48</ele>
        <time>2016-08-11T13:02:25Z</time>
      </trkpt>
      <trkpt lat="46.41875" lon="4.65344">
        <ele>252.48</ele>
        <time>2016-08-11T13:02:43Z</time>
      </trkpt>
      <trkpt lat="46.41857" lon="4.65348">
        <ele>252.48</ele>
        <time>2016-08-11T13:02:57Z</time>
      </trkpt>
      <trkpt lat="46.41839" lon="4.65345">
        <ele>251.04</ele>
        <time>2016-08-11T13:03:11Z</time>
      </trkpt>
      <trkpt lat="46.41817" lon="4.65338">
        <ele>250.56</ele>
        <time>2016-08-11T13:03:27Z</time>
      </trkpt>
      <trkpt lat="46.41797" lon="4.65333">
        <ele>250.08</ele>
        <time>2016-08-11T13:03:41Z</time>
      </trkpt>
      <trkpt lat="46.4178" lon="4.65325">
        <ele>251.04</ele>
        <time>2016-08-11T13:03:55Z</time>
      </trkpt>
      <trkpt lat="46.41761" lon="4.65316">
        <ele>252.96</ele>
        <time>2016-08-11T13:04:10Z</time>
      </trkpt>
      <trkpt lat="46.41743" lon="4.65308">
        <ele>256.33</ele>
        <time>2016-08-11T13:04:24Z</time>
      </trkpt>
      <trkpt lat="46.41725" lon="4.65301">
        <ele>259.69</ele>
        <time>2016-08-11T13:04:39Z</time>
      </trkpt>
      <trkpt lat="46.41706" lon="4.65292">
        <ele>261.62</ele>
        <time>2016-08-11T13:04:53Z</time>
      </trkpt>
      <trkpt lat="46.41686" lon="4.65284">
        <ele>263.06</ele>
        <time>2016-08-11T13:05:09Z</time>
      </trkpt>
      <trkpt lat="46.41667" lon="4.65275">
        <ele>262.58</ele>
        <time>2016-08-11T13:05:23Z</time>
      </trkpt>
      <trkpt lat="46.4165" lon="4.65265">
        <ele>263.54</ele>
        <time>2016-08-11T13:05:37Z</time>
      </trkpt>
      <trkpt lat="46.41631" lon="4.65255">
        <ele>265.46</ele>
        <time>2016-08-11T13:05:51Z</time>
      </trkpt>
      <trkpt lat="46.4161" lon="4.65244">
        <ele>267.86</ele>
        <time>2016-08-11T13:06:06Z</time>
      </trkpt>
      <trkpt lat="46.41595" lon="4.65235">
        <ele>268.83</ele>
        <time>2016-08-11T13:06:19Z</time>
      </trkpt>
      <trkpt lat="46.41582" lon="4.65226">
        <ele>267.86</ele>
        <time>2016-08-11T13:06:29Z</time>
      </trkpt>
      <trkpt lat="46.41561" lon="4.65216">
        <ele>267.86</ele>
        <time>2016-08-11T13:06:45Z</time>
      </trkpt>
      <trkpt lat="46.41544" lon="4.65207">
        <ele>269.79</ele>
        <time>2016-08-11T13:06:59Z</time>
      </trkpt>
      <trkpt lat="46.41525" lon="4.65196">
        <ele>272.19</ele>
        <time>2016-08-11T13:07:14Z</time>
      </trkpt>
      <trkpt lat="46.41506" lon="4.65184">
        <ele>274.11</ele>
        <time>2016-08-11T13:07:30Z</time>
      </trkpt>
      <trkpt lat="46.41488" lon="4.65171">
        <ele>273.15</ele>
        <time>2016-08-11T13:07:54Z</time>
      </trkpt>
      <trkpt lat="46.41477" lon="4.6516">
        <ele>264.5</ele>
        <time>2016-08-11T13:15:06Z</time>
      </trkpt>
      <trkpt lat="46.41463" lon="4.65148">
        <ele>265.94</ele>
        <time>2016-08-11T13:15:20Z</time>
      </trkpt>
      <trkpt lat="46.41444" lon="4.65131">
        <ele>265.46</ele>
        <time>2016-08-11T13:15:38Z</time>
      </trkpt>
      <trkpt lat="46.41436" lon="4.65125">
        <ele>264.98</ele>
        <time>2016-08-11T13:15:46Z</time>
      </trkpt>
      <trkpt lat="46.4142" lon="4.65115">
        <ele>263.06</ele>
        <time>2016-08-11T13:16:00Z</time>
      </trkpt>
      <trkpt lat="46.41408" lon="4.65111">
        <ele>262.58</ele>
        <time>2016-08-11T13:16:09Z</time>
      </trkpt>
      <trkpt lat="46.41386" lon="4.65113">
        <ele>262.58</ele>
        <time>2016-08-11T13:16:28Z</time>
      </trkpt>
      <trkpt lat="46.41379" lon="4.65114">
        <ele>262.58</ele>
        <time>2016-08-11T13:16:34Z</time>
      </trkpt>
      <trkpt lat="46.41376" lon="4.65114">
        <ele>262.58</ele>
        <time>2016-08-11T13:16:36Z</time>
      </trkpt>
      <trkpt lat="46.41359" lon="4.65115">
        <ele>262.58</ele>
        <time>2016-08-11T13:16:51Z</time>
      </trkpt>
      <trkpt lat="46.41342" lon="4.65115">
        <ele>263.06</ele>
        <time>2016-08-11T13:17:06Z</time>
      </trkpt>
      <trkpt lat="46.4134" lon="4.65115">
        <ele>263.06</ele>
        <time>2016-08-11T13:17:08Z</time>
      </trkpt>
      <trkpt lat="46.41323" lon="4.65113">
        <ele>263.54</ele>
        <time>2016-08-11T13:17:24Z</time>
      </trkpt>
      <trkpt lat="46.41303" lon="4.65109">
        <ele>263.06</ele>
        <time>2016-08-11T13:17:40Z</time>
      </trkpt>
      <trkpt lat="46.41288" lon="4.65104">
        <ele>261.62</ele>
        <time>2016-08-11T13:17:53Z</time>
      </trkpt>
      <trkpt lat="46.41272" lon="4.65095">
        <ele>259.21</ele>
        <time>2016-08-11T13:18:08Z</time>
      </trkpt>
      <trkpt lat="46.41251" lon="4.65086">
        <ele>256.33</ele>
        <time>2016-08-11T13:18:25Z</time>
      </trkpt>
      <trkpt lat="46.41234" lon="4.65082">
        <ele>257.29</ele>
        <time>2016-08-11T13:18:39Z</time>
      </trkpt>
      <trkpt lat="46.41221" lon="4.65079">
        <ele>255.85</ele>
        <time>2016-08-11T13:18:49Z</time>
      </trkpt>
      <trkpt lat="46.41199" lon="4.65071">
        <ele>251.04</ele>
        <time>2016-08-11T13:19:08Z</time>
      </trkpt>
      <trkpt lat="46.41182" lon="4.6506">
        <ele>256.81</ele>
        <time>2016-08-11T13:19:56Z</time>
      </trkpt>
      <trkpt lat="46.4117" lon="4.65051">
        <ele>257.77</ele>
        <time>2016-08-11T13:20:09Z</time>
      </trkpt>
      <trkpt lat="46.41154" lon="4.65045">
        <ele>258.73</ele>
        <time>2016-08-11T13:20:23Z</time>
      </trkpt>
      <trkpt lat="46.41133" lon="4.65039">
        <ele>257.77</ele>
        <time>2016-08-11T13:20:39Z</time>
      </trkpt>
      <trkpt lat="46.41126" lon="4.65037">
        <ele>256.81</ele>
        <time>2016-08-11T13:20:45Z</time>
      </trkpt>
      <trkpt lat="46.41118" lon="4.65034">
        <ele>255.37</ele>
        <time>2016-08-11T13:20:51Z</time>
      </trkpt>
      <trkpt lat="46.41114" lon="4.65032">
        <ele>254.41</ele>
        <time>2016-08-11T13:20:55Z</time>
      </trkpt>
      <trkpt lat="46.41094" lon="4.65026">
        <ele>252</ele>
        <time>2016-08-11T13:21:10Z</time>
      </trkpt>
      <trkpt lat="46.41071" lon="4.65015">
        <ele>247.68</ele>
        <time>2016-08-11T13:21:29Z</time>
      </trkpt>
      <trkpt lat="46.41055" lon="4.65011">
        <ele>244.31</ele>
        <time>2016-08-11T13:21:41Z</time>
      </trkpt>
      <trkpt lat="46.41031" lon="4.65009">
        <ele>239.99</ele>
        <time>2016-08-11T13:21:58Z</time>
      </trkpt>
      <trkpt lat="46.41015" lon="4.65002">
        <ele>244.31</ele>
        <time>2016-08-11T13:22:11Z</time>
      </trkpt>
      <trkpt lat="46.41001" lon="4.64992">
        <ele>244.79</ele>
        <time>2016-08-11T13:22:23Z</time>
      </trkpt>
      <trkpt lat="46.40982" lon="4.64984">
        <ele>244.79</ele>
        <time>2016-08-11T13:22:39Z</time>
      </trkpt>
      <trkpt lat="46.4098" lon="4.64984">
        <ele>245.27</ele>
        <time>2016-08-11T13:22:40Z</time>
      </trkpt>
      <trkpt lat="46.40952" lon="4.6498">
        <ele>248.64</ele>
        <time>2016-08-11T13:23:01Z</time>
      </trkpt>
      <trkpt lat="46.40933" lon="4.64984">
        <ele>249.12</ele>
        <time>2016-08-11T13:23:18Z</time>
      </trkpt>
      <trkpt lat="46.40916" lon="4.64991">
        <ele>250.08</ele>
        <time>2016-08-11T13:23:33Z</time>
      </trkpt>
      <trkpt lat="46.40898" lon="4.65006">
        <ele>249.6</ele>
        <time>2016-08-11T13:23:49Z</time>
      </trkpt>
      <trkpt lat="46.4088" lon="4.65022">
        <ele>248.16</ele>
        <time>2016-08-11T13:24:07Z</time>
      </trkpt>
      <trkpt lat="46.40863" lon="4.65017">
        <ele>247.2</ele>
        <time>2016-08-11T13:24:20Z</time>
      </trkpt>
      <trkpt lat="46.4085" lon="4.65005">
        <ele>247.2</ele>
        <time>2016-08-11T13:24:33Z</time>
      </trkpt>
      <trkpt lat="46.40843" lon="4.64999">
        <ele>247.2</ele>
        <time>2016-08-11T13:24:39Z</time>
      </trkpt>
      <trkpt lat="46.40831" lon="4.64984">
        <ele>247.2</ele>
        <time>2016-08-11T13:24:52Z</time>
      </trkpt>
      <trkpt lat="46.4083" lon="4.64984">
        <ele>247.2</ele>
        <time>2016-08-11T13:24:53Z</time>
      </trkpt>
      <trkpt lat="46.40818" lon="4.64972">
        <ele>248.16</ele>
        <time>2016-08-11T13:25:04Z</time>
      </trkpt>
      <trkpt lat="46.40805" lon="4.64959">
        <ele>249.6</ele>
        <time>2016-08-11T13:25:17Z</time>
      </trkpt>
      <trkpt lat="46.4079" lon="4.64946">
        <ele>249.6</ele>
        <time>2016-08-11T13:25:31Z</time>
      </trkpt>
      <trkpt lat="46.40771" lon="4.64935">
        <ele>250.56</ele>
        <time>2016-08-11T13:25:48Z</time>
      </trkpt>
      <trkpt lat="46.4075" lon="4.64929">
        <ele>246.72</ele>
        <time>2016-08-11T13:26:04Z</time>
      </trkpt>
      <trkpt lat="46.40738" lon="4.6492">
        <ele>245.75</ele>
        <time>2016-08-11T13:26:14Z</time>
      </trkpt>
      <trkpt lat="46.40726" lon="4.64904">
        <ele>244.79</ele>
        <time>2016-08-11T13:26:30Z</time>
      </trkpt>
      <trkpt lat="46.40696" lon="4.64865">
        <ele>236.14</ele>
        <time>2016-08-11T13:27:10Z</time>
      </trkpt>
      <trkpt lat="46.40675" lon="4.64843">
        <ele>236.62</ele>
        <time>2016-08-11T13:27:29Z</time>
      </trkpt>
      <trkpt lat="46.40667" lon="4.64835">
        <ele>236.62</ele>
        <time>2016-08-11T13:27:36Z</time>
      </trkpt>
      <trkpt lat="46.40647" lon="4.64818">
        <ele>238.54</ele>
        <time>2016-08-11T13:27:52Z</time>
      </trkpt>
      <trkpt lat="46.40629" lon="4.64806">
        <ele>240.95</ele>
        <time>2016-08-11T13:28:08Z</time>
      </trkpt>
      <trkpt lat="46.40615" lon="4.64799">
        <ele>242.39</ele>
        <time>2016-08-11T13:28:19Z</time>
      </trkpt>
      <trkpt lat="46.40597" lon="4.64785">
        <ele>243.35</ele>
        <time>2016-08-11T13:28:34Z</time>
      </trkpt>
      <trkpt lat="46.40582" lon="4.64776">
        <ele>246.23</ele>
        <time>2016-08-11T13:28:47Z</time>
      </trkpt>
      <trkpt lat="46.4058" lon="4.64774">
        <ele>246.23</ele>
        <time>2016-08-11T13:28:49Z</time>
      </trkpt>
      <trkpt lat="46.40566" lon="4.64764">
        <ele>244.31</ele>
        <time>2016-08-11T13:29:02Z</time>
      </trkpt>
      <trkpt lat="46.40559" lon="4.64759">
        <ele>243.35</ele>
        <time>2016-08-11T13:29:08Z</time>
      </trkpt>
      <trkpt lat="46.40553" lon="4.64758">
        <ele>243.83</ele>
        <time>2016-08-11T13:29:13Z</time>
      </trkpt>
      <trkpt lat="46.40551" lon="4.64756">
        <ele>244.31</ele>
        <time>2016-08-11T13:29:15Z</time>
      </trkpt>
      <trkpt lat="46.40537" lon="4.64744">
        <ele>243.83</ele>
        <time>2016-08-11T13:29:27Z</time>
      </trkpt>
      <trkpt lat="46.40532" lon="4.64739">
        <ele>243.35</ele>
        <time>2016-08-11T13:29:33Z</time>
      </trkpt>
      <trkpt lat="46.4052" lon="4.64733">
        <ele>243.83</ele>
        <time>2016-08-11T13:29:42Z</time>
      </trkpt>
      <trkpt lat="46.40512" lon="4.64732">
        <ele>243.83</ele>
        <time>2016-08-11T13:29:49Z</time>
      </trkpt>
      <trkpt lat="46.40503" lon="4.64732">
        <ele>245.27</ele>
        <time>2016-08-11T13:29:55Z</time>
      </trkpt>
      <trkpt lat="46.40493" lon="4.64732">
        <ele>245.27</ele>
        <time>2016-08-11T13:30:02Z</time>
      </trkpt>
      <trkpt lat="46.40484" lon="4.6473">
        <ele>246.23</ele>
        <time>2016-08-11T13:30:10Z</time>
      </trkpt>
      <trkpt lat="46.40475" lon="4.64725">
        <ele>247.68</ele>
        <time>2016-08-11T13:30:18Z</time>
      </trkpt>
      <trkpt lat="46.40461" lon="4.64716">
        <ele>250.56</ele>
        <time>2016-08-11T13:30:30Z</time>
      </trkpt>
      <trkpt lat="46.40446" lon="4.64707">
        <ele>251.04</ele>
        <time>2016-08-11T13:30:43Z</time>
      </trkpt>
      <trkpt lat="46.40426" lon="4.64703">
        <ele>250.56</ele>
        <time>2016-08-11T13:31:01Z</time>
      </trkpt>
      <trkpt lat="46.40418" lon="4.64703">
        <ele>251.04</ele>
        <time>2016-08-11T13:31:07Z</time>
      </trkpt>
      <trkpt lat="46.4041" lon="4.64703">
        <ele>251.52</ele>
        <time>2016-08-11T13:31:14Z</time>
      </trkpt>
      <trkpt lat="46.40403" lon="4.64704">
        <ele>252</ele>
        <time>2016-08-11T13:31:19Z</time>
      </trkpt>
      <trkpt lat="46.40399" lon="4.64702">
        <ele>251.52</ele>
        <time>2016-08-11T13:31:23Z</time>
      </trkpt>
      <trkpt lat="46.40383" lon="4.64696">
        <ele>248.64</ele>
        <time>2016-08-11T13:31:38Z</time>
      </trkpt>
      <trkpt lat="46.4037" lon="4.64687">
        <ele>243.83</ele>
        <time>2016-08-11T13:31:50Z</time>
      </trkpt>
      <trkpt lat="46.40365" lon="4.64679">
        <ele>239.51</ele>
        <time>2016-08-11T13:31:56Z</time>
      </trkpt>
      <trkpt lat="46.40351" lon="4.6466">
        <ele>235.66</ele>
        <time>2016-08-11T13:32:12Z</time>
      </trkpt>
      <trkpt lat="46.40342" lon="4.64647">
        <ele>236.14</ele>
        <time>2016-08-11T13:32:22Z</time>
      </trkpt>
      <trkpt lat="46.40335" lon="4.64633">
        <ele>236.14</ele>
        <time>2016-08-11T13:32:31Z</time>
      </trkpt>
      <trkpt lat="46.40327" lon="4.64609">
        <ele>238.54</ele>
        <time>2016-08-11T13:32:45Z</time>
      </trkpt>
      <trkpt lat="46.40315" lon="4.64593">
        <ele>242.39</ele>
        <time>2016-08-11T13:32:58Z</time>
      </trkpt>
      <trkpt lat="46.40306" lon="4.64585">
        <ele>243.83</ele>
        <time>2016-08-11T13:33:07Z</time>
      </trkpt>
      <trkpt lat="46.40294" lon="4.64574">
        <ele>245.27</ele>
        <time>2016-08-11T13:33:19Z</time>
      </trkpt>
      <trkpt lat="46.40287" lon="4.6457">
        <ele>246.23</ele>
        <time>2016-08-11T13:33:25Z</time>
      </trkpt>
      <trkpt lat="46.40274" lon="4.64561">
        <ele>246.23</ele>
        <time>2016-08-11T13:33:36Z</time>
      </trkpt>
      <trkpt lat="46.40269" lon="4.64559">
        <ele>245.75</ele>
        <time>2016-08-11T13:33:40Z</time>
      </trkpt>
      <trkpt lat="46.40259" lon="4.64555">
        <ele>245.75</ele>
        <time>2016-08-11T13:33:48Z</time>
      </trkpt>
      <trkpt lat="46.40242" lon="4.64545">
        <ele>247.68</ele>
        <time>2016-08-11T13:34:03Z</time>
      </trkpt>
      <trkpt lat="46.40234" lon="4.6454">
        <ele>248.64</ele>
        <time>2016-08-11T13:34:10Z</time>
      </trkpt>
      <trkpt lat="46.4022" lon="4.6452">
        <ele>250.56</ele>
        <time>2016-08-11T13:34:26Z</time>
      </trkpt>
      <trkpt lat="46.40217" lon="4.64517">
        <ele>251.04</ele>
        <time>2016-08-11T13:34:29Z</time>
      </trkpt>
      <trkpt lat="46.40205" lon="4.64501">
        <ele>252</ele>
        <time>2016-08-11T13:34:43Z</time>
      </trkpt>
      <trkpt lat="46.40202" lon="4.64498">
        <ele>252.48</ele>
        <time>2016-08-11T13:34:46Z</time>
      </trkpt>
      <trkpt lat="46.40188" lon="4.64484">
        <ele>253.44</ele>
        <time>2016-08-11T13:34:59Z</time>
      </trkpt>
      <trkpt lat="46.40186" lon="4.6448">
        <ele>252.96</ele>
        <time>2016-08-11T13:35:02Z</time>
      </trkpt>
      <trkpt lat="46.40174" lon="4.64465">
        <ele>253.44</ele>
        <time>2016-08-11T13:35:16Z</time>
      </trkpt>
      <trkpt lat="46.40164" lon="4.64455">
        <ele>251.52</ele>
        <time>2016-08-11T13:35:25Z</time>
      </trkpt>
      <trkpt lat="46.4016" lon="4.64448">
        <ele>252</ele>
        <time>2016-08-11T13:35:31Z</time>
      </trkpt>
      <trkpt lat="46.40144" lon="4.64419">
        <ele>252.48</ele>
        <time>2016-08-11T13:35:50Z</time>
      </trkpt>
      <trkpt lat="46.4014" lon="4.64409">
        <ele>252</ele>
        <time>2016-08-11T13:35:56Z</time>
      </trkpt>
      <trkpt lat="46.40136" lon="4.644">
        <ele>251.52</ele>
        <time>2016-08-11T13:36:01Z</time>
      </trkpt>
      <trkpt lat="46.40129" lon="4.64378">
        <ele>249.6</ele>
        <time>2016-08-11T13:36:15Z</time>
      </trkpt>
      <trkpt lat="46.40125" lon="4.64365">
        <ele>248.16</ele>
        <time>2016-08-11T13:36:23Z</time>
      </trkpt>
      <trkpt lat="46.40118" lon="4.64344">
        <ele>245.75</ele>
        <time>2016-08-11T13:36:37Z</time>
      </trkpt>
      <trkpt lat="46.40106" lon="4.64318">
        <ele>247.68</ele>
        <time>2016-08-11T13:36:54Z</time>
      </trkpt>
      <trkpt lat="46.40097" lon="4.64297">
        <ele>252</ele>
        <time>2016-08-11T13:37:09Z</time>
      </trkpt>
      <trkpt lat="46.40083" lon="4.64276">
        <ele>255.37</ele>
        <time>2016-08-11T13:37:24Z</time>
      </trkpt>
      <trkpt lat="46.40077" lon="4.64271">
        <ele>255.85</ele>
        <time>2016-08-11T13:37:29Z</time>
      </trkpt>
      <trkpt lat="46.40071" lon="4.64264">
        <ele>254.89</ele>
        <time>2016-08-11T13:37:36Z</time>
      </trkpt>
      <trkpt lat="46.4006" lon="4.64243">
        <ele>252.96</ele>
        <time>2016-08-11T13:37:50Z</time>
      </trkpt>
      <trkpt lat="46.40045" lon="4.64227">
        <ele>252</ele>
        <time>2016-08-11T13:38:05Z</time>
      </trkpt>
      <trkpt lat="46.40016" lon="4.64203">
        <ele>255.85</ele>
        <time>2016-08-11T13:38:32Z</time>
      </trkpt>
      <trkpt lat="46.40001" lon="4.64191">
        <ele>254.89</ele>
        <time>2016-08-11T13:38:59Z</time>
      </trkpt>
      <trkpt lat="46.39993" lon="4.64188">
        <ele>257.77</ele>
        <time>2016-08-11T13:39:49Z</time>
      </trkpt>
      <trkpt lat="46.39989" lon="4.64187">
        <ele>258.25</ele>
        <time>2016-08-11T13:39:53Z</time>
      </trkpt>
      <trkpt lat="46.39969" lon="4.64182">
        <ele>257.77</ele>
        <time>2016-08-11T13:40:09Z</time>
      </trkpt>
      <trkpt lat="46.39958" lon="4.64178">
        <ele>258.25</ele>
        <time>2016-08-11T13:40:17Z</time>
      </trkpt>
      <trkpt lat="46.39951" lon="4.64173">
        <ele>257.29</ele>
        <time>2016-08-11T13:40:23Z</time>
      </trkpt>
      <trkpt lat="46.39941" lon="4.64164">
        <ele>255.37</ele>
        <time>2016-08-11T13:40:32Z</time>
      </trkpt>
      <trkpt lat="46.39924" lon="4.64143">
        <ele>254.41</ele>
        <time>2016-08-11T13:40:50Z</time>
      </trkpt>
      <trkpt lat="46.39905" lon="4.64118">
        <ele>253.44</ele>
        <time>2016-08-11T13:41:10Z</time>
      </trkpt>
      <trkpt lat="46.39892" lon="4.64095">
        <ele>254.41</ele>
        <time>2016-08-11T13:41:25Z</time>
      </trkpt>
      <trkpt lat="46.39888" lon="4.64088">
        <ele>254.41</ele>
        <time>2016-08-11T13:41:30Z</time>
      </trkpt>
      <trkpt lat="46.39876" lon="4.64062">
        <ele>253.93</ele>
        <time>2016-08-11T13:41:48Z</time>
      </trkpt>
      <trkpt lat="46.39868" lon="4.64039">
        <ele>253.93</ele>
        <time>2016-08-11T13:42:02Z</time>
      </trkpt>
      <trkpt lat="46.39861" lon="4.64015">
        <ele>254.41</ele>
        <time>2016-08-11T13:42:18Z</time>
      </trkpt>
      <trkpt lat="46.39853" lon="4.63988">
        <ele>255.37</ele>
        <time>2016-08-11T13:42:34Z</time>
      </trkpt>
      <trkpt lat="46.39844" lon="4.63963">
        <ele>254.41</ele>
        <time>2016-08-11T13:42:50Z</time>
      </trkpt>
      <trkpt lat="46.39834" lon="4.63941">
        <ele>254.89</ele>
        <time>2016-08-11T13:43:05Z</time>
      </trkpt>
      <trkpt lat="46.39827" lon="4.6392">
        <ele>254.41</ele>
        <time>2016-08-11T13:43:17Z</time>
      </trkpt>
      <trkpt lat="46.39818" lon="4.639">
        <ele>254.41</ele>
        <time>2016-08-11T13:43:31Z</time>
      </trkpt>
      <trkpt lat="46.39812" lon="4.63884">
        <ele>254.89</ele>
        <time>2016-08-11T13:43:45Z</time>
      </trkpt>
      <trkpt lat="46.39803" lon="4.63862">
        <ele>252.96</ele>
        <time>2016-08-11T13:43:59Z</time>
      </trkpt>
      <trkpt lat="46.39796" lon="4.63844">
        <ele>251.04</ele>
        <time>2016-08-11T13:44:12Z</time>
      </trkpt>
      <trkpt lat="46.39784" lon="4.63809">
        <ele>248.64</ele>
        <time>2016-08-11T13:44:31Z</time>
      </trkpt>
      <trkpt lat="46.39778" lon="4.63794">
        <ele>251.52</ele>
        <time>2016-08-11T13:44:41Z</time>
      </trkpt>
      <trkpt lat="46.39762" lon="4.63762">
        <ele>254.41</ele>
        <time>2016-08-11T13:45:05Z</time>
      </trkpt>
      <trkpt lat="46.3975" lon="4.63741">
        <ele>253.44</ele>
        <time>2016-08-11T13:45:20Z</time>
      </trkpt>
      <trkpt lat="46.39738" lon="4.63718">
        <ele>254.89</ele>
        <time>2016-08-11T13:45:36Z</time>
      </trkpt>
      <trkpt lat="46.39731" lon="4.63697">
        <ele>257.77</ele>
        <time>2016-08-11T13:45:52Z</time>
      </trkpt>
      <trkpt lat="46.39723" lon="4.63675">
        <ele>262.58</ele>
        <time>2016-08-11T13:46:13Z</time>
      </trkpt>
      <trkpt lat="46.39722" lon="4.6367">
        <ele>263.54</ele>
        <time>2016-08-11T13:46:16Z</time>
      </trkpt>
      <trkpt lat="46.39716" lon="4.63651">
        <ele>263.54</ele>
        <time>2016-08-11T13:46:30Z</time>
      </trkpt>
      <trkpt lat="46.39709" lon="4.63637">
        <ele>260.17</ele>
        <time>2016-08-11T13:46:42Z</time>
      </trkpt>
      <trkpt lat="46.397" lon="4.63619">
        <ele>260.17</ele>
        <time>2016-08-11T13:46:55Z</time>
      </trkpt>
      <trkpt lat="46.39699" lon="4.63608">
        <ele>255.85</ele>
        <time>2016-08-11T13:47:16Z</time>
      </trkpt>
      <trkpt lat="46.39693" lon="4.63584">
        <ele>255.85</ele>
        <time>2016-08-11T13:47:31Z</time>
      </trkpt>
      <trkpt lat="46.39691" lon="4.63575">
        <ele>255.37</ele>
        <time>2016-08-11T13:47:37Z</time>
      </trkpt>
      <trkpt lat="46.39686" lon="4.6355">
        <ele>255.85</ele>
        <time>2016-08-11T13:47:51Z</time>
      </trkpt>
      <trkpt lat="46.39683" lon="4.63526">
        <ele>257.29</ele>
        <time>2016-08-11T13:48:05Z</time>
      </trkpt>
      <trkpt lat="46.39677" lon="4.63503">
        <ele>256.81</ele>
        <time>2016-08-11T13:48:19Z</time>
      </trkpt>
      <trkpt lat="46.39674" lon="4.63494">
        <ele>256.33</ele>
        <time>2016-08-11T13:48:25Z</time>
      </trkpt>
      <trkpt lat="46.39665" lon="4.6347">
        <ele>256.81</ele>
        <time>2016-08-11T13:48:40Z</time>
      </trkpt>
      <trkpt lat="46.39655" lon="4.63447">
        <ele>257.29</ele>
        <time>2016-08-11T13:48:54Z</time>
      </trkpt>
      <trkpt lat="46.39644" lon="4.63422">
        <ele>257.29</ele>
        <time>2016-08-11T13:49:10Z</time>
      </trkpt>
      <trkpt lat="46.39634" lon="4.634">
        <ele>258.25</ele>
        <time>2016-08-11T13:49:24Z</time>
      </trkpt>
      <trkpt lat="46.39628" lon="4.6338">
        <ele>258.73</ele>
        <time>2016-08-11T13:49:37Z</time>
      </trkpt>
      <trkpt lat="46.3962" lon="4.63354">
        <ele>259.21</ele>
        <time>2016-08-11T13:49:54Z</time>
      </trkpt>
      <trkpt lat="46.39616" lon="4.63337">
        <ele>258.73</ele>
        <time>2016-08-11T13:50:05Z</time>
      </trkpt>
      <trkpt lat="46.39608" lon="4.63297">
        <ele>258.73</ele>
        <time>2016-08-11T13:50:29Z</time>
      </trkpt>
      <trkpt lat="46.39605" lon="4.63284">
        <ele>259.21</ele>
        <time>2016-08-11T13:50:38Z</time>
      </trkpt>
      <trkpt lat="46.39604" lon="4.63281">
        <ele>259.69</ele>
        <time>2016-08-11T13:50:40Z</time>
      </trkpt>
      <trkpt lat="46.39596" lon="4.63238">
        <ele>259.21</ele>
        <time>2016-08-11T13:50:56Z</time>
      </trkpt>
      <trkpt lat="46.3959" lon="4.63219">
        <ele>260.17</ele>
        <time>2016-08-11T13:51:11Z</time>
      </trkpt>
      <trkpt lat="46.39585" lon="4.63198">
        <ele>259.21</ele>
        <time>2016-08-11T13:51:26Z</time>
      </trkpt>
      <trkpt lat="46.39576" lon="4.63178">
        <ele>260.65</ele>
        <time>2016-08-11T13:51:41Z</time>
      </trkpt>
      <trkpt lat="46.39569" lon="4.6316">
        <ele>261.62</ele>
        <time>2016-08-11T13:51:55Z</time>
      </trkpt>
      <trkpt lat="46.39567" lon="4.6314">
        <ele>261.14</ele>
        <time>2016-08-11T13:52:07Z</time>
      </trkpt>
      <trkpt lat="46.39561" lon="4.63108">
        <ele>261.62</ele>
        <time>2016-08-11T13:52:26Z</time>
      </trkpt>
      <trkpt lat="46.39563" lon="4.63082">
        <ele>262.1</ele>
        <time>2016-08-11T13:52:39Z</time>
      </trkpt>
      <trkpt lat="46.39567" lon="4.63063">
        <ele>259.69</ele>
        <time>2016-08-11T13:52:53Z</time>
      </trkpt>
      <trkpt lat="46.39571" lon="4.63047">
        <ele>257.29</ele>
        <time>2016-08-11T13:53:03Z</time>
      </trkpt>
      <trkpt lat="46.39582" lon="4.63021">
        <ele>257.77</ele>
        <time>2016-08-11T13:53:20Z</time>
      </trkpt>
      <trkpt lat="46.39594" lon="4.63005">
        <ele>259.21</ele>
        <time>2016-08-11T13:53:34Z</time>
      </trkpt>
      <trkpt lat="46.39606" lon="4.6299">
        <ele>260.65</ele>
        <time>2016-08-11T13:53:48Z</time>
      </trkpt>
      <trkpt lat="46.39609" lon="4.62985">
        <ele>260.65</ele>
        <time>2016-08-11T13:53:53Z</time>
      </trkpt>
      <trkpt lat="46.39611" lon="4.62982">
        <ele>260.65</ele>
        <time>2016-08-11T13:53:55Z</time>
      </trkpt>
      <trkpt lat="46.39625" lon="4.62958">
        <ele>260.65</ele>
        <time>2016-08-11T13:54:13Z</time>
      </trkpt>
      <trkpt lat="46.39632" lon="4.62943">
        <ele>259.21</ele>
        <time>2016-08-11T13:54:26Z</time>
      </trkpt>
      <trkpt lat="46.39638" lon="4.62929">
        <ele>256.33</ele>
        <time>2016-08-11T13:54:38Z</time>
      </trkpt>
      <trkpt lat="46.39639" lon="4.62926">
        <ele>255.85</ele>
        <time>2016-08-11T13:54:40Z</time>
      </trkpt>
      <trkpt lat="46.3964" lon="4.62923">
        <ele>255.85</ele>
        <time>2016-08-11T13:54:42Z</time>
      </trkpt>
      <trkpt lat="46.39652" lon="4.629">
        <ele>252.48</ele>
        <time>2016-08-11T13:55:02Z</time>
      </trkpt>
      <trkpt lat="46.3966" lon="4.62881">
        <ele>249.12</ele>
        <time>2016-08-11T13:55:18Z</time>
      </trkpt>
      <trkpt lat="46.39666" lon="4.62861">
        <ele>246.23</ele>
        <time>2016-08-11T13:55:33Z</time>
      </trkpt>
      <trkpt lat="46.39667" lon="4.62857">
        <ele>246.72</ele>
        <time>2016-08-11T13:55:36Z</time>
      </trkpt>
      <trkpt lat="46.39668" lon="4.62829">
        <ele>249.6</ele>
        <time>2016-08-11T13:55:52Z</time>
      </trkpt>
      <trkpt lat="46.39666" lon="4.62803">
        <ele>252.48</ele>
        <time>2016-08-11T13:56:07Z</time>
      </trkpt>
      <trkpt lat="46.39663" lon="4.62776">
        <ele>256.81</ele>
        <time>2016-08-11T13:56:22Z</time>
      </trkpt>
      <trkpt lat="46.39662" lon="4.6275">
        <ele>258.25</ele>
        <time>2016-08-11T13:56:38Z</time>
      </trkpt>
      <trkpt lat="46.39667" lon="4.62732">
        <ele>257.77</ele>
        <time>2016-08-11T13:56:51Z</time>
      </trkpt>
      <trkpt lat="46.39668" lon="4.62729">
        <ele>257.29</ele>
        <time>2016-08-11T13:56:54Z</time>
      </trkpt>
      <trkpt lat="46.39681" lon="4.62718">
        <ele>259.21</ele>
        <time>2016-08-11T13:57:08Z</time>
      </trkpt>
      <trkpt lat="46.39695" lon="4.62707">
        <ele>260.65</ele>
        <time>2016-08-11T13:57:27Z</time>
      </trkpt>
      <trkpt lat="46.39706" lon="4.62695">
        <ele>262.1</ele>
        <time>2016-08-11T13:57:42Z</time>
      </trkpt>
      <trkpt lat="46.39724" lon="4.62682">
        <ele>264.5</ele>
        <time>2016-08-11T13:57:58Z</time>
      </trkpt>
      <trkpt lat="46.39733" lon="4.62674">
        <ele>265.46</ele>
        <time>2016-08-11T13:58:07Z</time>
      </trkpt>
      <trkpt lat="46.39737" lon="4.62661">
        <ele>264.02</ele>
        <time>2016-08-11T13:58:22Z</time>
      </trkpt>
      <trkpt lat="46.39734" lon="4.62653">
        <ele>264.02</ele>
        <time>2016-08-11T13:58:31Z</time>
      </trkpt>
      <trkpt lat="46.39721" lon="4.62631">
        <ele>264.02</ele>
        <time>2016-08-11T13:58:47Z</time>
      </trkpt>
      <trkpt lat="46.39705" lon="4.6261">
        <ele>263.54</ele>
        <time>2016-08-11T13:59:05Z</time>
      </trkpt>
      <trkpt lat="46.39696" lon="4.62594">
        <ele>262.58</ele>
        <time>2016-08-11T13:59:19Z</time>
      </trkpt>
      <trkpt lat="46.39689" lon="4.62573">
        <ele>262.1</ele>
        <time>2016-08-11T13:59:31Z</time>
      </trkpt>
      <trkpt lat="46.39677" lon="4.62544">
        <ele>264.5</ele>
        <time>2016-08-11T13:59:47Z</time>
      </trkpt>
      <trkpt lat="46.39672" lon="4.62524">
        <ele>264.5</ele>
        <time>2016-08-11T14:00:00Z</time>
      </trkpt>
      <trkpt lat="46.39661" lon="4.62497">
        <ele>266.42</ele>
        <time>2016-08-11T14:00:16Z</time>
      </trkpt>
      <trkpt lat="46.39652" lon="4.62482">
        <ele>269.31</ele>
        <time>2016-08-11T14:00:28Z</time>
      </trkpt>
      <trkpt lat="46.39633" lon="4.62453">
        <ele>271.71</ele>
        <time>2016-08-11T14:00:49Z</time>
      </trkpt>
      <trkpt lat="46.3962" lon="4.6243">
        <ele>271.23</ele>
        <time>2016-08-11T14:01:04Z</time>
      </trkpt>
      <trkpt lat="46.39608" lon="4.62405">
        <ele>271.23</ele>
        <time>2016-08-11T14:01:19Z</time>
      </trkpt>
      <trkpt lat="46.39599" lon="4.62383">
        <ele>269.31</ele>
        <time>2016-08-11T14:01:32Z</time>
      </trkpt>
      <trkpt lat="46.39587" lon="4.62365">
        <ele>267.86</ele>
        <time>2016-08-11T14:01:46Z</time>
      </trkpt>
      <trkpt lat="46.39577" lon="4.62344">
        <ele>265.94</ele>
        <time>2016-08-11T14:01:59Z</time>
      </trkpt>
      <trkpt lat="46.39566" lon="4.62323">
        <ele>266.42</ele>
        <time>2016-08-11T14:02:13Z</time>
      </trkpt>
      <trkpt lat="46.39558" lon="4.62299">
        <ele>267.38</ele>
        <time>2016-08-11T14:02:28Z</time>
      </trkpt>
      <trkpt lat="46.39556" lon="4.62271">
        <ele>267.38</ele>
        <time>2016-08-11T14:02:44Z</time>
      </trkpt>
      <trkpt lat="46.39553" lon="4.62247">
        <ele>265.94</ele>
        <time>2016-08-11T14:03:07Z</time>
      </trkpt>
      <trkpt lat="46.39552" lon="4.62218">
        <ele>265.94</ele>
        <time>2016-08-11T14:17:28Z</time>
      </trkpt>
      <trkpt lat="46.39552" lon="4.6221">
        <ele>265.94</ele>
        <time>2016-08-11T14:17:32Z</time>
      </trkpt>
      <trkpt lat="46.39553" lon="4.62166">
        <ele>269.31</ele>
        <time>2016-08-11T14:18:13Z</time>
      </trkpt>
      <trkpt lat="46.39556" lon="4.62149">
        <ele>269.79</ele>
        <time>2016-08-11T14:18:23Z</time>
      </trkpt>
      <trkpt lat="46.39562" lon="4.62119">
        <ele>268.83</ele>
        <time>2016-08-11T14:18:40Z</time>
      </trkpt>
      <trkpt lat="46.39558" lon="4.62114">
        <ele>270.75</ele>
        <time>2016-08-11T14:19:22Z</time>
      </trkpt>
      <trkpt lat="46.39557" lon="4.62112">
        <ele>271.23</ele>
        <time>2016-08-11T14:19:24Z</time>
      </trkpt>
      <trkpt lat="46.39548" lon="4.621">
        <ele>271.71</ele>
        <time>2016-08-11T14:19:37Z</time>
      </trkpt>
      <trkpt lat="46.39543" lon="4.62082">
        <ele>269.79</ele>
        <time>2016-08-11T14:19:52Z</time>
      </trkpt>
      <trkpt lat="46.39537" lon="4.62063">
        <ele>267.38</ele>
        <time>2016-08-11T14:20:06Z</time>
      </trkpt>
      <trkpt lat="46.39534" lon="4.6206">
        <ele>266.9</ele>
        <time>2016-08-11T14:20:11Z</time>
      </trkpt>
      <trkpt lat="46.39521" lon="4.6205">
        <ele>265.94</ele>
        <time>2016-08-11T14:20:25Z</time>
      </trkpt>
      <trkpt lat="46.39503" lon="4.62034">
        <ele>264.98</ele>
        <time>2016-08-11T14:20:43Z</time>
      </trkpt>
      <trkpt lat="46.39485" lon="4.62015">
        <ele>264.98</ele>
        <time>2016-08-11T14:21:00Z</time>
      </trkpt>
      <trkpt lat="46.39468" lon="4.61994">
        <ele>264.98</ele>
        <time>2016-08-11T14:21:17Z</time>
      </trkpt>
      <trkpt lat="46.3945" lon="4.61976">
        <ele>264.5</ele>
        <time>2016-08-11T14:21:34Z</time>
      </trkpt>
      <trkpt lat="46.39433" lon="4.6196">
        <ele>262.58</ele>
        <time>2016-08-11T14:21:50Z</time>
      </trkpt>
      <trkpt lat="46.39412" lon="4.61944">
        <ele>263.54</ele>
        <time>2016-08-11T14:22:07Z</time>
      </trkpt>
      <trkpt lat="46.39393" lon="4.61928">
        <ele>264.02</ele>
        <time>2016-08-11T14:22:24Z</time>
      </trkpt>
      <trkpt lat="46.39375" lon="4.6191">
        <ele>264.02</ele>
        <time>2016-08-11T14:22:41Z</time>
      </trkpt>
      <trkpt lat="46.39353" lon="4.61893">
        <ele>263.54</ele>
        <time>2016-08-11T14:23:01Z</time>
      </trkpt>
      <trkpt lat="46.39348" lon="4.61891">
        <ele>263.06</ele>
        <time>2016-08-11T14:23:05Z</time>
      </trkpt>
      <trkpt lat="46.39331" lon="4.61882">
        <ele>261.62</ele>
        <time>2016-08-11T14:23:20Z</time>
      </trkpt>
      <trkpt lat="46.39315" lon="4.61874">
        <ele>260.65</ele>
        <time>2016-08-11T14:23:34Z</time>
      </trkpt>
      <trkpt lat="46.39297" lon="4.61868">
        <ele>261.14</ele>
        <time>2016-08-11T14:23:49Z</time>
      </trkpt>
      <trkpt lat="46.3928" lon="4.61858">
        <ele>259.69</ele>
        <time>2016-08-11T14:24:04Z</time>
      </trkpt>
      <trkpt lat="46.3926" lon="4.61846">
        <ele>259.69</ele>
        <time>2016-08-11T14:24:20Z</time>
      </trkpt>
      <trkpt lat="46.39241" lon="4.61835">
        <ele>260.17</ele>
        <time>2016-08-11T14:24:37Z</time>
      </trkpt>
      <trkpt lat="46.39222" lon="4.61823">
        <ele>260.65</ele>
        <time>2016-08-11T14:24:53Z</time>
      </trkpt>
      <trkpt lat="46.39202" lon="4.61814">
        <ele>260.65</ele>
        <time>2016-08-11T14:25:10Z</time>
      </trkpt>
      <trkpt lat="46.39201" lon="4.61814">
        <ele>261.14</ele>
        <time>2016-08-11T14:25:11Z</time>
      </trkpt>
      <trkpt lat="46.3918" lon="4.61809">
        <ele>261.14</ele>
        <time>2016-08-11T14:25:28Z</time>
      </trkpt>
      <trkpt lat="46.39166" lon="4.61811">
        <ele>262.1</ele>
        <time>2016-08-11T14:25:40Z</time>
      </trkpt>
      <trkpt lat="46.39159" lon="4.61811">
        <ele>261.14</ele>
        <time>2016-08-11T14:26:04Z</time>
      </trkpt>
      <trkpt lat="46.39139" lon="4.61813">
        <ele>258.73</ele>
        <time>2016-08-11T14:26:19Z</time>
      </trkpt>
      <trkpt lat="46.39118" lon="4.61802">
        <ele>260.65</ele>
        <time>2016-08-11T14:26:36Z</time>
      </trkpt>
      <trkpt lat="46.39096" lon="4.61781">
        <ele>262.58</ele>
        <time>2016-08-11T14:26:55Z</time>
      </trkpt>
      <trkpt lat="46.3909" lon="4.61773">
        <ele>263.54</ele>
        <time>2016-08-11T14:27:01Z</time>
      </trkpt>
      <trkpt lat="46.39068" lon="4.61745">
        <ele>263.54</ele>
        <time>2016-08-11T14:27:22Z</time>
      </trkpt>
      <trkpt lat="46.39049" lon="4.61715">
        <ele>264.02</ele>
        <time>2016-08-11T14:27:42Z</time>
      </trkpt>
      <trkpt lat="46.39035" lon="4.61696">
        <ele>264.98</ele>
        <time>2016-08-11T14:27:57Z</time>
      </trkpt>
      <trkpt lat="46.39017" lon="4.61678">
        <ele>267.86</ele>
        <time>2016-08-11T14:28:13Z</time>
      </trkpt>
      <trkpt lat="46.39005" lon="4.61668">
        <ele>271.23</ele>
        <time>2016-08-11T14:28:25Z</time>
      </trkpt>
      <trkpt lat="46.39" lon="4.61664">
        <ele>271.23</ele>
        <time>2016-08-11T14:28:29Z</time>
      </trkpt>
      <trkpt lat="46.3899" lon="4.61656">
        <ele>271.23</ele>
        <time>2016-08-11T14:28:39Z</time>
      </trkpt>
      <trkpt lat="46.38975" lon="4.61646">
        <ele>270.75</ele>
        <time>2016-08-11T14:28:56Z</time>
      </trkpt>
      <trkpt lat="46.38974" lon="4.61647">
        <ele>270.27</ele>
        <time>2016-08-11T14:28:57Z</time>
      </trkpt>
      <trkpt lat="46.38962" lon="4.61663">
        <ele>267.86</ele>
        <time>2016-08-11T14:29:11Z</time>
      </trkpt>
      <trkpt lat="46.38944" lon="4.61686">
        <ele>267.38</ele>
        <time>2016-08-11T14:29:30Z</time>
      </trkpt>
      <trkpt lat="46.3893" lon="4.61708">
        <ele>264.5</ele>
        <time>2016-08-11T14:29:45Z</time>
      </trkpt>
      <trkpt lat="46.38915" lon="4.6173">
        <ele>264.5</ele>
        <time>2016-08-11T14:30:00Z</time>
      </trkpt>
      <trkpt lat="46.38901" lon="4.61751">
        <ele>265.94</ele>
        <time>2016-08-11T14:30:14Z</time>
      </trkpt>
      <trkpt lat="46.38889" lon="4.61769">
        <ele>266.9</ele>
        <time>2016-08-11T14:30:28Z</time>
      </trkpt>
      <trkpt lat="46.38859" lon="4.61808">
        <ele>267.38</ele>
        <time>2016-08-11T14:31:04Z</time>
      </trkpt>
      <trkpt lat="46.38845" lon="4.61823">
        <ele>267.86</ele>
        <time>2016-08-11T14:31:17Z</time>
      </trkpt>
      <trkpt lat="46.38842" lon="4.6183">
        <ele>267.38</ele>
        <time>2016-08-11T14:32:15Z</time>
      </trkpt>
      <trkpt lat="46.38829" lon="4.61876">
        <ele>269.79</ele>
        <time>2016-08-11T14:32:48Z</time>
      </trkpt>
      <trkpt lat="46.38825" lon="4.619">
        <ele>267.86</ele>
        <time>2016-08-11T14:33:02Z</time>
      </trkpt>
      <trkpt lat="46.38815" lon="4.61915">
        <ele>270.27</ele>
        <time>2016-08-11T14:33:15Z</time>
      </trkpt>
      <trkpt lat="46.38803" lon="4.61928">
        <ele>269.79</ele>
        <time>2016-08-11T14:33:27Z</time>
      </trkpt>
      <trkpt lat="46.38789" lon="4.61948">
        <ele>269.79</ele>
        <time>2016-08-11T14:33:41Z</time>
      </trkpt>
      <trkpt lat="46.38788" lon="4.61948">
        <ele>262.58</ele>
        <time>2016-08-12T04:48:31Z</time>
      </trkpt>
      <trkpt lat="46.38783" lon="4.61956">
        <ele>259.69</ele>
        <time>2016-08-12T04:48:37Z</time>
      </trkpt>
      <trkpt lat="46.38771" lon="4.6199">
        <ele>256.33</ele>
        <time>2016-08-12T04:48:57Z</time>
      </trkpt>
      <trkpt lat="46.38761" lon="4.62019">
        <ele>259.69</ele>
        <time>2016-08-12T04:49:13Z</time>
      </trkpt>
      <trkpt lat="46.38753" lon="4.62039">
        <ele>262.58</ele>
        <time>2016-08-12T04:49:24Z</time>
      </trkpt>
      <trkpt lat="46.3874" lon="4.62063">
        <ele>266.9</ele>
        <time>2016-08-12T04:49:38Z</time>
      </trkpt>
      <trkpt lat="46.38721" lon="4.6206">
        <ele>266.42</ele>
        <time>2016-08-12T04:49:52Z</time>
      </trkpt>
      <trkpt lat="46.38708" lon="4.62043">
        <ele>270.75</ele>
        <time>2016-08-12T04:50:05Z</time>
      </trkpt>
      <trkpt lat="46.38688" lon="4.6203">
        <ele>276.04</ele>
        <time>2016-08-12T04:50:22Z</time>
      </trkpt>
      <trkpt lat="46.38668" lon="4.62053">
        <ele>277</ele>
        <time>2016-08-12T04:50:39Z</time>
      </trkpt>
      <trkpt lat="46.38653" lon="4.62078">
        <ele>277.48</ele>
        <time>2016-08-12T04:50:56Z</time>
      </trkpt>
      <trkpt lat="46.38651" lon="4.62083">
        <ele>277.96</ele>
        <time>2016-08-12T04:51:01Z</time>
      </trkpt>
      <trkpt lat="46.38658" lon="4.62096">
        <ele>278.92</ele>
        <time>2016-08-12T04:51:09Z</time>
      </trkpt>
      <trkpt lat="46.38685" lon="4.62122">
        <ele>278.92</ele>
        <time>2016-08-12T04:51:30Z</time>
      </trkpt>
      <trkpt lat="46.38703" lon="4.62143">
        <ele>277</ele>
        <time>2016-08-12T04:51:46Z</time>
      </trkpt>
      <trkpt lat="46.38704" lon="4.62145">
        <ele>277</ele>
        <time>2016-08-12T04:51:48Z</time>
      </trkpt>
      <trkpt lat="46.38724" lon="4.62178">
        <ele>277.48</ele>
        <time>2016-08-12T04:52:08Z</time>
      </trkpt>
      <trkpt lat="46.38737" lon="4.622">
        <ele>277</ele>
        <time>2016-08-12T04:52:23Z</time>
      </trkpt>
      <trkpt lat="46.38748" lon="4.62223">
        <ele>277.96</ele>
        <time>2016-08-12T04:52:37Z</time>
      </trkpt>
      <trkpt lat="46.38753" lon="4.62231">
        <ele>277.48</ele>
        <time>2016-08-12T04:52:42Z</time>
      </trkpt>
      <trkpt lat="46.38758" lon="4.62238">
        <ele>277.48</ele>
        <time>2016-08-12T04:52:47Z</time>
      </trkpt>
      <trkpt lat="46.38771" lon="4.62263">
        <ele>277.48</ele>
        <time>2016-08-12T04:53:02Z</time>
      </trkpt>
      <trkpt lat="46.38784" lon="4.62288">
        <ele>277.48</ele>
        <time>2016-08-12T04:53:18Z</time>
      </trkpt>
      <trkpt lat="46.38799" lon="4.62314">
        <ele>280.36</ele>
        <time>2016-08-12T04:53:34Z</time>
      </trkpt>
      <trkpt lat="46.38804" lon="4.62322">
        <ele>280.84</ele>
        <time>2016-08-12T04:53:39Z</time>
      </trkpt>
      <trkpt lat="46.38816" lon="4.62349">
        <ele>280.84</ele>
        <time>2016-08-12T04:53:55Z</time>
      </trkpt>
      <trkpt lat="46.38819" lon="4.62356">
        <ele>280.84</ele>
        <time>2016-08-12T04:53:59Z</time>
      </trkpt>
      <trkpt lat="46.38831" lon="4.6238">
        <ele>281.32</ele>
        <time>2016-08-12T04:54:14Z</time>
      </trkpt>
      <trkpt lat="46.38841" lon="4.62405">
        <ele>281.8</ele>
        <time>2016-08-12T04:54:28Z</time>
      </trkpt>
      <trkpt lat="46.38853" lon="4.62431">
        <ele>283.25</ele>
        <time>2016-08-12T04:54:43Z</time>
      </trkpt>
      <trkpt lat="46.38862" lon="4.62452">
        <ele>284.69</ele>
        <time>2016-08-12T04:54:55Z</time>
      </trkpt>
      <trkpt lat="46.38866" lon="4.62462">
        <ele>284.69</ele>
        <time>2016-08-12T04:55:01Z</time>
      </trkpt>
      <trkpt lat="46.38875" lon="4.62481">
        <ele>285.65</ele>
        <time>2016-08-12T04:55:12Z</time>
      </trkpt>
      <trkpt lat="46.38878" lon="4.62488">
        <ele>286.13</ele>
        <time>2016-08-12T04:55:16Z</time>
      </trkpt>
      <trkpt lat="46.3889" lon="4.62516">
        <ele>289.97</ele>
        <time>2016-08-12T04:55:31Z</time>
      </trkpt>
      <trkpt lat="46.38899" lon="4.62538">
        <ele>292.86</ele>
        <time>2016-08-12T04:55:44Z</time>
      </trkpt>
      <trkpt lat="46.38904" lon="4.62557">
        <ele>291.9</ele>
        <time>2016-08-12T04:55:56Z</time>
      </trkpt>
      <trkpt lat="46.38905" lon="4.62568">
        <ele>288.53</ele>
        <time>2016-08-12T04:56:04Z</time>
      </trkpt>
      <trkpt lat="46.38906" lon="4.62575">
        <ele>287.09</ele>
        <time>2016-08-12T04:56:08Z</time>
      </trkpt>
      <trkpt lat="46.38906" lon="4.62588">
        <ele>284.21</ele>
        <time>2016-08-12T04:56:15Z</time>
      </trkpt>
      <trkpt lat="46.38905" lon="4.62594">
        <ele>282.28</ele>
        <time>2016-08-12T04:56:19Z</time>
      </trkpt>
      <trkpt lat="46.38903" lon="4.62615">
        <ele>282.28</ele>
        <time>2016-08-12T04:56:29Z</time>
      </trkpt>
      <trkpt lat="46.38898" lon="4.62637">
        <ele>286.13</ele>
        <time>2016-08-12T04:56:43Z</time>
      </trkpt>
      <trkpt lat="46.38892" lon="4.62653">
        <ele>290.46</ele>
        <time>2016-08-12T04:56:53Z</time>
      </trkpt>
      <trkpt lat="46.38886" lon="4.62672">
        <ele>293.82</ele>
        <time>2016-08-12T04:57:05Z</time>
      </trkpt>
      <trkpt lat="46.38885" lon="4.62711">
        <ele>298.63</ele>
        <time>2016-08-12T04:57:24Z</time>
      </trkpt>
      <trkpt lat="46.38884" lon="4.62734">
        <ele>304.88</ele>
        <time>2016-08-12T04:57:37Z</time>
      </trkpt>
      <trkpt lat="46.38884" lon="4.62742">
        <ele>305.36</ele>
        <time>2016-08-12T04:57:41Z</time>
      </trkpt>
      <trkpt lat="46.38883" lon="4.62775">
        <ele>312.57</ele>
        <time>2016-08-12T04:58:11Z</time>
      </trkpt>
      <trkpt lat="46.38882" lon="4.62809">
        <ele>313.53</ele>
        <time>2016-08-12T04:58:29Z</time>
      </trkpt>
      <trkpt lat="46.38877" lon="4.62839">
        <ele>315.45</ele>
        <time>2016-08-12T04:58:44Z</time>
      </trkpt>
      <trkpt lat="46.38869" lon="4.6286">
        <ele>316.41</ele>
        <time>2016-08-12T04:58:56Z</time>
      </trkpt>
      <trkpt lat="46.3886" lon="4.62878">
        <ele>316.41</ele>
        <time>2016-08-12T04:59:08Z</time>
      </trkpt>
      <trkpt lat="46.38859" lon="4.62879">
        <ele>316.41</ele>
        <time>2016-08-12T04:59:09Z</time>
      </trkpt>
      <trkpt lat="46.38842" lon="4.62873">
        <ele>317.85</ele>
        <time>2016-08-12T04:59:23Z</time>
      </trkpt>
      <trkpt lat="46.38839" lon="4.62871">
        <ele>318.81</ele>
        <time>2016-08-12T04:59:26Z</time>
      </trkpt>
      <trkpt lat="46.38825" lon="4.62861">
        <ele>324.1</ele>
        <time>2016-08-12T04:59:41Z</time>
      </trkpt>
      <trkpt lat="46.38805" lon="4.62846">
        <ele>326.02</ele>
        <time>2016-08-12T04:59:58Z</time>
      </trkpt>
      <trkpt lat="46.38795" lon="4.62834">
        <ele>326.99</ele>
        <time>2016-08-12T05:00:10Z</time>
      </trkpt>
      <trkpt lat="46.38782" lon="4.62818">
        <ele>327.95</ele>
        <time>2016-08-12T05:00:22Z</time>
      </trkpt>
      <trkpt lat="46.38782" lon="4.62817">
        <ele>328.43</ele>
        <time>2016-08-12T05:00:23Z</time>
      </trkpt>
      <trkpt lat="46.3877" lon="4.62792">
        <ele>331.79</ele>
        <time>2016-08-12T05:00:39Z</time>
      </trkpt>
      <trkpt lat="46.38761" lon="4.62778">
        <ele>332.75</ele>
        <time>2016-08-12T05:00:52Z</time>
      </trkpt>
      <trkpt lat="46.3875" lon="4.62758">
        <ele>336.12</ele>
        <time>2016-08-12T05:01:04Z</time>
      </trkpt>
      <trkpt lat="46.38742" lon="4.62743">
        <ele>338.04</ele>
        <time>2016-08-12T05:01:17Z</time>
      </trkpt>
      <trkpt lat="46.38733" lon="4.62727">
        <ele>341.89</ele>
        <time>2016-08-12T05:01:31Z</time>
      </trkpt>
      <trkpt lat="46.38723" lon="4.62715">
        <ele>343.81</ele>
        <time>2016-08-12T05:01:45Z</time>
      </trkpt>
      <trkpt lat="46.38715" lon="4.62704">
        <ele>343.33</ele>
        <time>2016-08-12T05:01:58Z</time>
      </trkpt>
      <trkpt lat="46.38703" lon="4.62693">
        <ele>345.73</ele>
        <time>2016-08-12T05:02:10Z</time>
      </trkpt>
      <trkpt lat="46.38688" lon="4.62685">
        <ele>348.62</ele>
        <time>2016-08-12T05:02:23Z</time>
      </trkpt>
      <trkpt lat="46.38676" lon="4.62678">
        <ele>349.1</ele>
        <time>2016-08-12T05:02:35Z</time>
      </trkpt>
      <trkpt lat="46.38662" lon="4.62671">
        <ele>350.06</ele>
        <time>2016-08-12T05:02:47Z</time>
      </trkpt>
      <trkpt lat="46.38651" lon="4.62659">
        <ele>349.58</ele>
        <time>2016-08-12T05:03:00Z</time>
      </trkpt>
      <trkpt lat="46.3864" lon="4.62645">
        <ele>349.58</ele>
        <time>2016-08-12T05:03:15Z</time>
      </trkpt>
      <trkpt lat="46.38637" lon="4.6264">
        <ele>350.06</ele>
        <time>2016-08-12T05:03:19Z</time>
      </trkpt>
      <trkpt lat="46.38625" lon="4.62625">
        <ele>352.94</ele>
        <time>2016-08-12T05:03:29Z</time>
      </trkpt>
      <trkpt lat="46.38612" lon="4.62611">
        <ele>354.86</ele>
        <time>2016-08-12T05:03:41Z</time>
      </trkpt>
      <trkpt lat="46.38595" lon="4.62601">
        <ele>353.9</ele>
        <time>2016-08-12T05:03:56Z</time>
      </trkpt>
      <trkpt lat="46.38579" lon="4.6259">
        <ele>355.83</ele>
        <time>2016-08-12T05:04:12Z</time>
      </trkpt>
      <trkpt lat="46.38562" lon="4.62579">
        <ele>357.75</ele>
        <time>2016-08-12T05:04:26Z</time>
      </trkpt>
      <trkpt lat="46.38545" lon="4.62567">
        <ele>358.23</ele>
        <time>2016-08-12T05:04:39Z</time>
      </trkpt>
      <trkpt lat="46.3853" lon="4.62557">
        <ele>361.11</ele>
        <time>2016-08-12T05:05:14Z</time>
      </trkpt>
      <trkpt lat="46.38508" lon="4.62555">
        <ele>359.19</ele>
        <time>2016-08-12T05:05:32Z</time>
      </trkpt>
      <trkpt lat="46.38502" lon="4.62556">
        <ele>359.19</ele>
        <time>2016-08-12T05:05:37Z</time>
      </trkpt>
      <trkpt lat="46.38484" lon="4.62561">
        <ele>357.75</ele>
        <time>2016-08-12T05:05:52Z</time>
      </trkpt>
      <trkpt lat="46.38464" lon="4.6256">
        <ele>356.31</ele>
        <time>2016-08-12T05:06:06Z</time>
      </trkpt>
      <trkpt lat="46.38449" lon="4.62557">
        <ele>356.31</ele>
        <time>2016-08-12T05:06:19Z</time>
      </trkpt>
      <trkpt lat="46.38439" lon="4.62553">
        <ele>356.79</ele>
        <time>2016-08-12T05:06:27Z</time>
      </trkpt>
      <trkpt lat="46.38417" lon="4.62551">
        <ele>358.71</ele>
        <time>2016-08-12T05:06:46Z</time>
      </trkpt>
      <trkpt lat="46.38404" lon="4.62552">
        <ele>356.79</ele>
        <time>2016-08-12T05:06:59Z</time>
      </trkpt>
      <trkpt lat="46.38393" lon="4.62554">
        <ele>355.34</ele>
        <time>2016-08-12T05:07:09Z</time>
      </trkpt>
      <trkpt lat="46.38377" lon="4.62557">
        <ele>353.9</ele>
        <time>2016-08-12T05:07:22Z</time>
      </trkpt>
      <trkpt lat="46.38372" lon="4.62558">
        <ele>354.38</ele>
        <time>2016-08-12T05:07:25Z</time>
      </trkpt>
      <trkpt lat="46.38352" lon="4.62557">
        <ele>358.71</ele>
        <time>2016-08-12T05:07:40Z</time>
      </trkpt>
      <trkpt lat="46.38335" lon="4.62553">
        <ele>360.15</ele>
        <time>2016-08-12T05:07:54Z</time>
      </trkpt>
      <trkpt lat="46.38319" lon="4.62551">
        <ele>361.59</ele>
        <time>2016-08-12T05:08:06Z</time>
      </trkpt>
      <trkpt lat="46.38302" lon="4.62553">
        <ele>365.92</ele>
        <time>2016-08-12T05:08:20Z</time>
      </trkpt>
      <trkpt lat="46.38282" lon="4.62549">
        <ele>369.76</ele>
        <time>2016-08-12T05:08:37Z</time>
      </trkpt>
      <trkpt lat="46.38263" lon="4.62548">
        <ele>371.69</ele>
        <time>2016-08-12T05:08:52Z</time>
      </trkpt>
      <trkpt lat="46.38248" lon="4.62539">
        <ele>377.45</ele>
        <time>2016-08-12T05:09:05Z</time>
      </trkpt>
      <trkpt lat="46.38235" lon="4.62526">
        <ele>381.3</ele>
        <time>2016-08-12T05:09:19Z</time>
      </trkpt>
      <trkpt lat="46.38225" lon="4.62515">
        <ele>376.97</ele>
        <time>2016-08-12T05:09:33Z</time>
      </trkpt>
      <trkpt lat="46.38214" lon="4.62508">
        <ele>373.61</ele>
        <time>2016-08-12T05:09:47Z</time>
      </trkpt>
      <trkpt lat="46.38196" lon="4.625">
        <ele>371.21</ele>
        <time>2016-08-12T05:09:59Z</time>
      </trkpt>
      <trkpt lat="46.38182" lon="4.62485">
        <ele>369.76</ele>
        <time>2016-08-12T05:10:14Z</time>
      </trkpt>
      <trkpt lat="46.38167" lon="4.62478">
        <ele>375.05</ele>
        <time>2016-08-12T05:10:26Z</time>
      </trkpt>
      <trkpt lat="46.38153" lon="4.62473">
        <ele>377.94</ele>
        <time>2016-08-12T05:10:38Z</time>
      </trkpt>
      <trkpt lat="46.38135" lon="4.62458">
        <ele>381.78</ele>
        <time>2016-08-12T05:10:54Z</time>
      </trkpt>
      <trkpt lat="46.38117" lon="4.62446">
        <ele>386.11</ele>
        <time>2016-08-12T05:11:09Z</time>
      </trkpt>
      <trkpt lat="46.38108" lon="4.62439">
        <ele>387.55</ele>
        <time>2016-08-12T05:11:18Z</time>
      </trkpt>
      <trkpt lat="46.38092" lon="4.6243">
        <ele>386.11</ele>
        <time>2016-08-12T05:11:33Z</time>
      </trkpt>
      <trkpt lat="46.38076" lon="4.62425">
        <ele>387.07</ele>
        <time>2016-08-12T05:11:47Z</time>
      </trkpt>
      <trkpt lat="46.38069" lon="4.62419">
        <ele>386.11</ele>
        <time>2016-08-12T05:11:56Z</time>
      </trkpt>
      <trkpt lat="46.38056" lon="4.6241">
        <ele>384.66</ele>
        <time>2016-08-12T05:12:09Z</time>
      </trkpt>
      <trkpt lat="46.38043" lon="4.62407">
        <ele>388.51</ele>
        <time>2016-08-12T05:12:21Z</time>
      </trkpt>
      <trkpt lat="46.3803" lon="4.62401">
        <ele>397.16</ele>
        <time>2016-08-12T05:12:33Z</time>
      </trkpt>
      <trkpt lat="46.38022" lon="4.62397">
        <ele>399.57</ele>
        <time>2016-08-12T05:12:42Z</time>
      </trkpt>
      <trkpt lat="46.38019" lon="4.62396">
        <ele>399.08</ele>
        <time>2016-08-12T05:12:45Z</time>
      </trkpt>
      <trkpt lat="46.38017" lon="4.62395">
        <ele>399.08</ele>
        <time>2016-08-12T05:12:47Z</time>
      </trkpt>
      <trkpt lat="46.38003" lon="4.62392">
        <ele>400.05</ele>
        <time>2016-08-12T05:13:00Z</time>
      </trkpt>
      <trkpt lat="46.37995" lon="4.62392">
        <ele>401.97</ele>
        <time>2016-08-12T05:13:06Z</time>
      </trkpt>
      <trkpt lat="46.37992" lon="4.62392">
        <ele>402.45</ele>
        <time>2016-08-12T05:13:08Z</time>
      </trkpt>
      <trkpt lat="46.37981" lon="4.62386">
        <ele>405.81</ele>
        <time>2016-08-12T05:13:20Z</time>
      </trkpt>
      <trkpt lat="46.37969" lon="4.62378">
        <ele>405.33</ele>
        <time>2016-08-12T05:13:33Z</time>
      </trkpt>
      <trkpt lat="46.37958" lon="4.62361">
        <ele>405.81</ele>
        <time>2016-08-12T05:13:46Z</time>
      </trkpt>
      <trkpt lat="46.3794" lon="4.62345">
        <ele>411.1</ele>
        <time>2016-08-12T05:14:02Z</time>
      </trkpt>
      <trkpt lat="46.37928" lon="4.6233">
        <ele>414.95</ele>
        <time>2016-08-12T05:14:15Z</time>
      </trkpt>
      <trkpt lat="46.37917" lon="4.6232">
        <ele>417.83</ele>
        <time>2016-08-12T05:14:29Z</time>
      </trkpt>
      <trkpt lat="46.37913" lon="4.62306">
        <ele>418.79</ele>
        <time>2016-08-12T05:14:41Z</time>
      </trkpt>
      <trkpt lat="46.37914" lon="4.62291">
        <ele>416.87</ele>
        <time>2016-08-12T05:14:53Z</time>
      </trkpt>
      <trkpt lat="46.37916" lon="4.62268">
        <ele>413.5</ele>
        <time>2016-08-12T05:15:07Z</time>
      </trkpt>
      <trkpt lat="46.37922" lon="4.62229">
        <ele>410.62</ele>
        <time>2016-08-12T05:15:23Z</time>
      </trkpt>
      <trkpt lat="46.3793" lon="4.62198">
        <ele>411.1</ele>
        <time>2016-08-12T05:15:41Z</time>
      </trkpt>
      <trkpt lat="46.37935" lon="4.62162">
        <ele>412.54</ele>
        <time>2016-08-12T05:15:59Z</time>
      </trkpt>
      <trkpt lat="46.37937" lon="4.62135">
        <ele>411.58</ele>
        <time>2016-08-12T05:16:16Z</time>
      </trkpt>
      <trkpt lat="46.37937" lon="4.62132">
        <ele>411.58</ele>
        <time>2016-08-12T05:16:17Z</time>
      </trkpt>
      <trkpt lat="46.37926" lon="4.62101">
        <ele>413.5</ele>
        <time>2016-08-12T05:16:34Z</time>
      </trkpt>
      <trkpt lat="46.3792" lon="4.62091">
        <ele>414.47</ele>
        <time>2016-08-12T05:16:42Z</time>
      </trkpt>
      <trkpt lat="46.37906" lon="4.62065">
        <ele>415.43</ele>
        <time>2016-08-12T05:17:00Z</time>
      </trkpt>
      <trkpt lat="46.37891" lon="4.62034">
        <ele>423.6</ele>
        <time>2016-08-12T05:19:36Z</time>
      </trkpt>
      <trkpt lat="46.37879" lon="4.61995">
        <ele>420.71</ele>
        <time>2016-08-12T05:19:55Z</time>
      </trkpt>
      <trkpt lat="46.37866" lon="4.61976">
        <ele>419.27</ele>
        <time>2016-08-12T05:20:10Z</time>
      </trkpt>
      <trkpt lat="46.37855" lon="4.6196">
        <ele>419.27</ele>
        <time>2016-08-12T05:20:25Z</time>
      </trkpt>
      <trkpt lat="46.37839" lon="4.61942">
        <ele>422.64</ele>
        <time>2016-08-12T05:20:42Z</time>
      </trkpt>
      <trkpt lat="46.37825" lon="4.61926">
        <ele>428.4</ele>
        <time>2016-08-12T05:20:57Z</time>
      </trkpt>
      <trkpt lat="46.37814" lon="4.61902">
        <ele>433.69</ele>
        <time>2016-08-12T05:21:13Z</time>
      </trkpt>
      <trkpt lat="46.37809" lon="4.61884">
        <ele>435.13</ele>
        <time>2016-08-12T05:21:28Z</time>
      </trkpt>
      <trkpt lat="46.37796" lon="4.61861">
        <ele>435.61</ele>
        <time>2016-08-12T05:21:45Z</time>
      </trkpt>
      <trkpt lat="46.37785" lon="4.61834">
        <ele>439.46</ele>
        <time>2016-08-12T05:22:02Z</time>
      </trkpt>
      <trkpt lat="46.37776" lon="4.61813">
        <ele>440.9</ele>
        <time>2016-08-12T05:22:18Z</time>
      </trkpt>
      <trkpt lat="46.37772" lon="4.61785">
        <ele>441.86</ele>
        <time>2016-08-12T05:22:32Z</time>
      </trkpt>
      <trkpt lat="46.37766" lon="4.61758">
        <ele>440.42</ele>
        <time>2016-08-12T05:22:48Z</time>
      </trkpt>
      <trkpt lat="46.3776" lon="4.61743">
        <ele>440.9</ele>
        <time>2016-08-12T05:23:01Z</time>
      </trkpt>
      <trkpt lat="46.37752" lon="4.61725">
        <ele>443.79</ele>
        <time>2016-08-12T05:23:14Z</time>
      </trkpt>
      <trkpt lat="46.37745" lon="4.61708">
        <ele>445.71</ele>
        <time>2016-08-12T05:23:27Z</time>
      </trkpt>
      <trkpt lat="46.37738" lon="4.61695">
        <ele>446.67</ele>
        <time>2016-08-12T05:23:39Z</time>
      </trkpt>
      <trkpt lat="46.37724" lon="4.61676">
        <ele>445.71</ele>
        <time>2016-08-12T05:23:55Z</time>
      </trkpt>
      <trkpt lat="46.37708" lon="4.61654">
        <ele>445.71</ele>
        <time>2016-08-12T05:24:09Z</time>
      </trkpt>
      <trkpt lat="46.37695" lon="4.61641">
        <ele>446.19</ele>
        <time>2016-08-12T05:24:23Z</time>
      </trkpt>
      <trkpt lat="46.37687" lon="4.61632">
        <ele>447.15</ele>
        <time>2016-08-12T05:24:32Z</time>
      </trkpt>
      <trkpt lat="46.37671" lon="4.61621">
        <ele>448.11</ele>
        <time>2016-08-12T05:24:48Z</time>
      </trkpt>
      <trkpt lat="46.37653" lon="4.61619">
        <ele>444.75</ele>
        <time>2016-08-12T05:25:03Z</time>
      </trkpt>
      <trkpt lat="46.37633" lon="4.61618">
        <ele>439.46</ele>
        <time>2016-08-12T05:25:19Z</time>
      </trkpt>
      <trkpt lat="46.37617" lon="4.61618">
        <ele>436.1</ele>
        <time>2016-08-12T05:25:34Z</time>
      </trkpt>
      <trkpt lat="46.37598" lon="4.61614">
        <ele>435.13</ele>
        <time>2016-08-12T05:25:50Z</time>
      </trkpt>
      <trkpt lat="46.37578" lon="4.6161">
        <ele>437.06</ele>
        <time>2016-08-12T05:26:06Z</time>
      </trkpt>
      <trkpt lat="46.37558" lon="4.61611">
        <ele>435.13</ele>
        <time>2016-08-12T05:26:22Z</time>
      </trkpt>
      <trkpt lat="46.37535" lon="4.61613">
        <ele>434.65</ele>
        <time>2016-08-12T05:26:39Z</time>
      </trkpt>
      <trkpt lat="46.37508" lon="4.61619">
        <ele>435.61</ele>
        <time>2016-08-12T05:26:56Z</time>
      </trkpt>
      <trkpt lat="46.37507" lon="4.6162">
        <ele>437.06</ele>
        <time>2016-08-12T05:26:58Z</time>
      </trkpt>
      <trkpt lat="46.37489" lon="4.61615">
        <ele>441.86</ele>
        <time>2016-08-12T05:27:13Z</time>
      </trkpt>
      <trkpt lat="46.37465" lon="4.6161">
        <ele>441.86</ele>
        <time>2016-08-12T05:27:31Z</time>
      </trkpt>
      <trkpt lat="46.37441" lon="4.61603">
        <ele>447.63</ele>
        <time>2016-08-12T05:27:47Z</time>
      </trkpt>
      <trkpt lat="46.37422" lon="4.61598">
        <ele>447.63</ele>
        <time>2016-08-12T05:28:02Z</time>
      </trkpt>
      <trkpt lat="46.37404" lon="4.61595">
        <ele>447.63</ele>
        <time>2016-08-12T05:28:17Z</time>
      </trkpt>
      <trkpt lat="46.37384" lon="4.61588">
        <ele>449.55</ele>
        <time>2016-08-12T05:28:34Z</time>
      </trkpt>
      <trkpt lat="46.37364" lon="4.61586">
        <ele>450.52</ele>
        <time>2016-08-12T05:28:51Z</time>
      </trkpt>
      <trkpt lat="46.37344" lon="4.61586">
        <ele>445.71</ele>
        <time>2016-08-12T05:29:09Z</time>
      </trkpt>
      <trkpt lat="46.37325" lon="4.61587">
        <ele>442.82</ele>
        <time>2016-08-12T05:29:24Z</time>
      </trkpt>
      <trkpt lat="46.37304" lon="4.61583">
        <ele>440.9</ele>
        <time>2016-08-12T05:29:41Z</time>
      </trkpt>
      <trkpt lat="46.37284" lon="4.6158">
        <ele>439.46</ele>
        <time>2016-08-12T05:29:56Z</time>
      </trkpt>
      <trkpt lat="46.37268" lon="4.61578">
        <ele>438.98</ele>
        <time>2016-08-12T05:30:09Z</time>
      </trkpt>
      <trkpt lat="46.37254" lon="4.61573">
        <ele>438.5</ele>
        <time>2016-08-12T05:30:22Z</time>
      </trkpt>
      <trkpt lat="46.37235" lon="4.61564">
        <ele>437.54</ele>
        <time>2016-08-12T05:30:37Z</time>
      </trkpt>
      <trkpt lat="46.37218" lon="4.61553">
        <ele>440.9</ele>
        <time>2016-08-12T05:30:51Z</time>
      </trkpt>
      <trkpt lat="46.37196" lon="4.61547">
        <ele>451.48</ele>
        <time>2016-08-12T05:31:05Z</time>
      </trkpt>
      <trkpt lat="46.37174" lon="4.61544">
        <ele>455.8</ele>
        <time>2016-08-12T05:31:22Z</time>
      </trkpt>
      <trkpt lat="46.3716" lon="4.61538">
        <ele>457.72</ele>
        <time>2016-08-12T05:31:38Z</time>
      </trkpt>
      <trkpt lat="46.37108" lon="4.61503">
        <ele>458.69</ele>
        <time>2016-08-12T05:33:23Z</time>
      </trkpt>
      <trkpt lat="46.3709" lon="4.61485">
        <ele>456.76</ele>
        <time>2016-08-12T05:33:40Z</time>
      </trkpt>
      <trkpt lat="46.37084" lon="4.61476">
        <ele>455.8</ele>
        <time>2016-08-12T05:33:50Z</time>
      </trkpt>
      <trkpt lat="46.37072" lon="4.61452">
        <ele>455.32</ele>
        <time>2016-08-12T05:34:06Z</time>
      </trkpt>
      <trkpt lat="46.37058" lon="4.61438">
        <ele>450.52</ele>
        <time>2016-08-12T05:34:22Z</time>
      </trkpt>
      <trkpt lat="46.37055" lon="4.61436">
        <ele>449.55</ele>
        <time>2016-08-12T05:34:25Z</time>
      </trkpt>
      <trkpt lat="46.37036" lon="4.61424">
        <ele>448.11</ele>
        <time>2016-08-12T05:34:44Z</time>
      </trkpt>
      <trkpt lat="46.37019" lon="4.61415">
        <ele>441.86</ele>
        <time>2016-08-12T05:35:01Z</time>
      </trkpt>
      <trkpt lat="46.37007" lon="4.61404">
        <ele>439.46</ele>
        <time>2016-08-12T05:35:14Z</time>
      </trkpt>
      <trkpt lat="46.37003" lon="4.61401">
        <ele>439.94</ele>
        <time>2016-08-12T05:35:17Z</time>
      </trkpt>
      <trkpt lat="46.36985" lon="4.61381">
        <ele>439.94</ele>
        <time>2016-08-12T05:35:33Z</time>
      </trkpt>
      <trkpt lat="46.36969" lon="4.61364">
        <ele>438.02</ele>
        <time>2016-08-12T05:35:49Z</time>
      </trkpt>
      <trkpt lat="46.36955" lon="4.61341">
        <ele>437.54</ele>
        <time>2016-08-12T05:36:05Z</time>
      </trkpt>
      <trkpt lat="46.36936" lon="4.61325">
        <ele>441.86</ele>
        <time>2016-08-12T05:36:21Z</time>
      </trkpt>
      <trkpt lat="46.36923" lon="4.61311">
        <ele>442.82</ele>
        <time>2016-08-12T05:36:34Z</time>
      </trkpt>
      <trkpt lat="46.36907" lon="4.61296">
        <ele>442.34</ele>
        <time>2016-08-12T05:36:50Z</time>
      </trkpt>
      <trkpt lat="46.36901" lon="4.61279">
        <ele>441.38</ele>
        <time>2016-08-12T05:37:02Z</time>
      </trkpt>
      <trkpt lat="46.3689" lon="4.61256">
        <ele>439.46</ele>
        <time>2016-08-12T05:37:17Z</time>
      </trkpt>
      <trkpt lat="46.36886" lon="4.6125">
        <ele>438.98</ele>
        <time>2016-08-12T05:37:22Z</time>
      </trkpt>
      <trkpt lat="46.3687" lon="4.61236">
        <ele>437.06</ele>
        <time>2016-08-12T05:37:37Z</time>
      </trkpt>
      <trkpt lat="46.36867" lon="4.61234">
        <ele>437.06</ele>
        <time>2016-08-12T05:37:40Z</time>
      </trkpt>
      <trkpt lat="46.36852" lon="4.61221">
        <ele>437.06</ele>
        <time>2016-08-12T05:37:58Z</time>
      </trkpt>
      <trkpt lat="46.36837" lon="4.61192">
        <ele>438.98</ele>
        <time>2016-08-12T05:38:14Z</time>
      </trkpt>
      <trkpt lat="46.36825" lon="4.61165">
        <ele>442.34</ele>
        <time>2016-08-12T05:38:31Z</time>
      </trkpt>
      <trkpt lat="46.36823" lon="4.61163">
        <ele>442.82</ele>
        <time>2016-08-12T05:38:33Z</time>
      </trkpt>
      <trkpt lat="46.36809" lon="4.61142">
        <ele>442.34</ele>
        <time>2016-08-12T05:38:49Z</time>
      </trkpt>
      <trkpt lat="46.36793" lon="4.61122">
        <ele>441.86</ele>
        <time>2016-08-12T05:39:06Z</time>
      </trkpt>
      <trkpt lat="46.36781" lon="4.61102">
        <ele>444.75</ele>
        <time>2016-08-12T05:39:21Z</time>
      </trkpt>
      <trkpt lat="46.36766" lon="4.6108">
        <ele>446.19</ele>
        <time>2016-08-12T05:39:39Z</time>
      </trkpt>
      <trkpt lat="46.36756" lon="4.61069">
        <ele>445.23</ele>
        <time>2016-08-12T05:39:53Z</time>
      </trkpt>
      <trkpt lat="46.36754" lon="4.61066">
        <ele>445.23</ele>
        <time>2016-08-12T05:39:56Z</time>
      </trkpt>
      <trkpt lat="46.36746" lon="4.61054">
        <ele>445.23</ele>
        <time>2016-08-12T05:40:05Z</time>
      </trkpt>
      <trkpt lat="46.36733" lon="4.61036">
        <ele>445.71</ele>
        <time>2016-08-12T05:40:21Z</time>
      </trkpt>
      <trkpt lat="46.36714" lon="4.61006">
        <ele>447.15</ele>
        <time>2016-08-12T05:40:39Z</time>
      </trkpt>
      <trkpt lat="46.36701" lon="4.60992">
        <ele>448.59</ele>
        <time>2016-08-12T05:40:53Z</time>
      </trkpt>
      <trkpt lat="46.36687" lon="4.60976">
        <ele>451.48</ele>
        <time>2016-08-12T05:41:09Z</time>
      </trkpt>
      <trkpt lat="46.36674" lon="4.60964">
        <ele>453.4</ele>
        <time>2016-08-12T05:41:22Z</time>
      </trkpt>
      <trkpt lat="46.36663" lon="4.60956">
        <ele>453.88</ele>
        <time>2016-08-12T05:41:35Z</time>
      </trkpt>
      <trkpt lat="46.36653" lon="4.60945">
        <ele>455.32</ele>
        <time>2016-08-12T05:41:49Z</time>
      </trkpt>
      <trkpt lat="46.36645" lon="4.60934">
        <ele>457.72</ele>
        <time>2016-08-12T05:41:59Z</time>
      </trkpt>
      <trkpt lat="46.36635" lon="4.60927">
        <ele>458.21</ele>
        <time>2016-08-12T05:42:12Z</time>
      </trkpt>
      <trkpt lat="46.36622" lon="4.60916">
        <ele>459.17</ele>
        <time>2016-08-12T05:42:26Z</time>
      </trkpt>
      <trkpt lat="46.36612" lon="4.60906">
        <ele>463.97</ele>
        <time>2016-08-12T05:42:35Z</time>
      </trkpt>
      <trkpt lat="46.36602" lon="4.60896">
        <ele>466.86</ele>
        <time>2016-08-12T05:42:50Z</time>
      </trkpt>
      <trkpt lat="46.36593" lon="4.60884">
        <ele>465.9</ele>
        <time>2016-08-12T05:43:05Z</time>
      </trkpt>
      <trkpt lat="46.36579" lon="4.60861">
        <ele>466.38</ele>
        <time>2016-08-12T05:43:24Z</time>
      </trkpt>
      <trkpt lat="46.36576" lon="4.60854">
        <ele>466.86</ele>
        <time>2016-08-12T05:43:29Z</time>
      </trkpt>
      <trkpt lat="46.36564" lon="4.60831">
        <ele>470.7</ele>
        <time>2016-08-12T05:43:45Z</time>
      </trkpt>
      <trkpt lat="46.36559" lon="4.60822">
        <ele>475.03</ele>
        <time>2016-08-12T05:43:56Z</time>
      </trkpt>
      <trkpt lat="46.36545" lon="4.60795">
        <ele>477.91</ele>
        <time>2016-08-12T05:44:11Z</time>
      </trkpt>
      <trkpt lat="46.36535" lon="4.60774">
        <ele>478.87</ele>
        <time>2016-08-12T05:44:26Z</time>
      </trkpt>
      <trkpt lat="46.36528" lon="4.60757">
        <ele>478.87</ele>
        <time>2016-08-12T05:44:38Z</time>
      </trkpt>
      <trkpt lat="46.36524" lon="4.60741">
        <ele>477.43</ele>
        <time>2016-08-12T05:44:51Z</time>
      </trkpt>
      <trkpt lat="46.36523" lon="4.60739">
        <ele>477.43</ele>
        <time>2016-08-12T05:44:53Z</time>
      </trkpt>
      <trkpt lat="46.36516" lon="4.60725">
        <ele>479.84</ele>
        <time>2016-08-12T05:45:05Z</time>
      </trkpt>
      <trkpt lat="46.36506" lon="4.60707">
        <ele>484.16</ele>
        <time>2016-08-12T05:45:20Z</time>
      </trkpt>
      <trkpt lat="46.36502" lon="4.60697">
        <ele>486.08</ele>
        <time>2016-08-12T05:45:27Z</time>
      </trkpt>
      <trkpt lat="46.36498" lon="4.60688">
        <ele>487.53</ele>
        <time>2016-08-12T05:45:35Z</time>
      </trkpt>
      <trkpt lat="46.3649" lon="4.60675">
        <ele>489.93</ele>
        <time>2016-08-12T05:45:47Z</time>
      </trkpt>
      <trkpt lat="46.36479" lon="4.60661">
        <ele>491.37</ele>
        <time>2016-08-12T05:46:01Z</time>
      </trkpt>
      <trkpt lat="46.36478" lon="4.60658">
        <ele>491.37</ele>
        <time>2016-08-12T05:46:04Z</time>
      </trkpt>
      <trkpt lat="46.36456" lon="4.60647">
        <ele>492.81</ele>
        <time>2016-08-12T05:46:22Z</time>
      </trkpt>
      <trkpt lat="46.36433" lon="4.60641">
        <ele>493.77</ele>
        <time>2016-08-12T05:46:38Z</time>
      </trkpt>
      <trkpt lat="46.36416" lon="4.60636">
        <ele>493.77</ele>
        <time>2016-08-12T05:46:53Z</time>
      </trkpt>
      <trkpt lat="46.36402" lon="4.6063">
        <ele>493.77</ele>
        <time>2016-08-12T05:47:06Z</time>
      </trkpt>
      <trkpt lat="46.36387" lon="4.6062">
        <ele>494.74</ele>
        <time>2016-08-12T05:47:21Z</time>
      </trkpt>
      <trkpt lat="46.3637" lon="4.60609">
        <ele>493.77</ele>
        <time>2016-08-12T05:47:36Z</time>
      </trkpt>
      <trkpt lat="46.36352" lon="4.606">
        <ele>492.81</ele>
        <time>2016-08-12T05:47:51Z</time>
      </trkpt>
      <trkpt lat="46.3633" lon="4.60587">
        <ele>492.81</ele>
        <time>2016-08-12T05:48:09Z</time>
      </trkpt>
      <trkpt lat="46.36306" lon="4.60573">
        <ele>491.85</ele>
        <time>2016-08-12T05:48:29Z</time>
      </trkpt>
      <trkpt lat="46.36284" lon="4.60567">
        <ele>490.89</ele>
        <time>2016-08-12T05:48:47Z</time>
      </trkpt>
      <trkpt lat="46.36263" lon="4.60562">
        <ele>490.89</ele>
        <time>2016-08-12T05:49:04Z</time>
      </trkpt>
      <trkpt lat="46.36244" lon="4.60558">
        <ele>490.89</ele>
        <time>2016-08-12T05:49:19Z</time>
      </trkpt>
      <trkpt lat="46.36222" lon="4.60552">
        <ele>492.33</ele>
        <time>2016-08-12T05:49:36Z</time>
      </trkpt>
      <trkpt lat="46.36187" lon="4.60557">
        <ele>492.33</ele>
        <time>2016-08-12T05:50:24Z</time>
      </trkpt>
      <trkpt lat="46.36167" lon="4.60561">
        <ele>491.37</ele>
        <time>2016-08-12T05:50:39Z</time>
      </trkpt>
      <trkpt lat="46.36147" lon="4.60564">
        <ele>490.41</ele>
        <time>2016-08-12T05:50:55Z</time>
      </trkpt>
      <trkpt lat="46.36127" lon="4.60562">
        <ele>489.93</ele>
        <time>2016-08-12T05:51:11Z</time>
      </trkpt>
      <trkpt lat="46.36109" lon="4.60562">
        <ele>490.41</ele>
        <time>2016-08-12T05:51:27Z</time>
      </trkpt>
      <trkpt lat="46.36095" lon="4.60563">
        <ele>489.93</ele>
        <time>2016-08-12T05:51:41Z</time>
      </trkpt>
      <trkpt lat="46.36073" lon="4.60563">
        <ele>491.85</ele>
        <time>2016-08-12T05:51:58Z</time>
      </trkpt>
      <trkpt lat="46.36063" lon="4.60563">
        <ele>493.29</ele>
        <time>2016-08-12T05:52:08Z</time>
      </trkpt>
      <trkpt lat="46.36059" lon="4.60565">
        <ele>493.77</ele>
        <time>2016-08-12T05:52:12Z</time>
      </trkpt>
      <trkpt lat="46.36057" lon="4.6057">
        <ele>494.26</ele>
        <time>2016-08-12T05:52:15Z</time>
      </trkpt>
      <trkpt lat="46.36055" lon="4.60607">
        <ele>495.7</ele>
        <time>2016-08-12T05:52:33Z</time>
      </trkpt>
      <trkpt lat="46.36046" lon="4.60632">
        <ele>495.7</ele>
        <time>2016-08-12T05:52:51Z</time>
      </trkpt>
      <trkpt lat="46.36025" lon="4.60622">
        <ele>497.62</ele>
        <time>2016-08-12T05:53:09Z</time>
      </trkpt>
      <trkpt lat="46.36009" lon="4.60616">
        <ele>500.02</ele>
        <time>2016-08-12T05:53:23Z</time>
      </trkpt>
      <trkpt lat="46.35992" lon="4.60616">
        <ele>502.43</ele>
        <time>2016-08-12T05:53:37Z</time>
      </trkpt>
      <trkpt lat="46.35973" lon="4.60616">
        <ele>505.79</ele>
        <time>2016-08-12T05:53:53Z</time>
      </trkpt>
      <trkpt lat="46.35956" lon="4.60612">
        <ele>508.19</ele>
        <time>2016-08-12T05:54:08Z</time>
      </trkpt>
      <trkpt lat="46.35945" lon="4.60608">
        <ele>511.08</ele>
        <time>2016-08-12T05:54:19Z</time>
      </trkpt>
      <trkpt lat="46.35928" lon="4.60602">
        <ele>513.48</ele>
        <time>2016-08-12T05:54:35Z</time>
      </trkpt>
      <trkpt lat="46.35912" lon="4.606">
        <ele>515.4</ele>
        <time>2016-08-12T05:54:50Z</time>
      </trkpt>
      <trkpt lat="46.35898" lon="4.60597">
        <ele>516.85</ele>
        <time>2016-08-12T05:55:04Z</time>
      </trkpt>
      <trkpt lat="46.3588" lon="4.60596">
        <ele>518.29</ele>
        <time>2016-08-12T05:55:19Z</time>
      </trkpt>
      <trkpt lat="46.35859" lon="4.60594">
        <ele>521.17</ele>
        <time>2016-08-12T05:55:37Z</time>
      </trkpt>
      <trkpt lat="46.35838" lon="4.60588">
        <ele>525.02</ele>
        <time>2016-08-12T05:55:54Z</time>
      </trkpt>
      <trkpt lat="46.3582" lon="4.60582">
        <ele>526.46</ele>
        <time>2016-08-12T05:56:08Z</time>
      </trkpt>
      <trkpt lat="46.35802" lon="4.6057">
        <ele>526.94</ele>
        <time>2016-08-12T05:56:25Z</time>
      </trkpt>
      <trkpt lat="46.35796" lon="4.60563">
        <ele>526.94</ele>
        <time>2016-08-12T05:56:31Z</time>
      </trkpt>
      <trkpt lat="46.3578" lon="4.60545">
        <ele>526.94</ele>
        <time>2016-08-12T05:56:48Z</time>
      </trkpt>
      <trkpt lat="46.35762" lon="4.60528">
        <ele>529.82</ele>
        <time>2016-08-12T05:57:05Z</time>
      </trkpt>
      <trkpt lat="46.35747" lon="4.60513">
        <ele>532.23</ele>
        <time>2016-08-12T05:57:21Z</time>
      </trkpt>
      <trkpt lat="46.35729" lon="4.60498">
        <ele>532.23</ele>
        <time>2016-08-12T05:57:40Z</time>
      </trkpt>
      <trkpt lat="46.35717" lon="4.60485">
        <ele>530.79</ele>
        <time>2016-08-12T05:57:55Z</time>
      </trkpt>
      <trkpt lat="46.35715" lon="4.60483">
        <ele>530.79</ele>
        <time>2016-08-12T05:57:57Z</time>
      </trkpt>
      <trkpt lat="46.35705" lon="4.6047">
        <ele>532.71</ele>
        <time>2016-08-12T05:58:08Z</time>
      </trkpt>
      <trkpt lat="46.3569" lon="4.60452">
        <ele>532.23</ele>
        <time>2016-08-12T05:58:22Z</time>
      </trkpt>
      <trkpt lat="46.35675" lon="4.60437">
        <ele>526.94</ele>
        <time>2016-08-12T05:58:38Z</time>
      </trkpt>
      <trkpt lat="46.35664" lon="4.6041">
        <ele>529.34</ele>
        <time>2016-08-12T05:58:54Z</time>
      </trkpt>
      <trkpt lat="46.35654" lon="4.60391">
        <ele>533.19</ele>
        <time>2016-08-12T05:59:08Z</time>
      </trkpt>
      <trkpt lat="46.35631" lon="4.60375">
        <ele>533.67</ele>
        <time>2016-08-12T05:59:27Z</time>
      </trkpt>
      <trkpt lat="46.3561" lon="4.60366">
        <ele>534.63</ele>
        <time>2016-08-12T05:59:44Z</time>
      </trkpt>
      <trkpt lat="46.35592" lon="4.60355">
        <ele>537.99</ele>
        <time>2016-08-12T05:59:59Z</time>
      </trkpt>
      <trkpt lat="46.35572" lon="4.6034">
        <ele>540.4</ele>
        <time>2016-08-12T06:00:15Z</time>
      </trkpt>
      <trkpt lat="46.35548" lon="4.60324">
        <ele>540.88</ele>
        <time>2016-08-12T06:00:35Z</time>
      </trkpt>
      <trkpt lat="46.35531" lon="4.60313">
        <ele>536.55</ele>
        <time>2016-08-12T06:00:55Z</time>
      </trkpt>
      <trkpt lat="46.35525" lon="4.60307">
        <ele>536.07</ele>
        <time>2016-08-12T06:01:00Z</time>
      </trkpt>
      <trkpt lat="46.35502" lon="4.60292">
        <ele>536.07</ele>
        <time>2016-08-12T06:01:16Z</time>
      </trkpt>
      <trkpt lat="46.35489" lon="4.60285">
        <ele>537.51</ele>
        <time>2016-08-12T06:01:26Z</time>
      </trkpt>
      <trkpt lat="46.35484" lon="4.60284">
        <ele>537.99</ele>
        <time>2016-08-12T06:01:30Z</time>
      </trkpt>
      <trkpt lat="46.35481" lon="4.60282">
        <ele>537.99</ele>
        <time>2016-08-12T06:01:33Z</time>
      </trkpt>
      <trkpt lat="46.35468" lon="4.60279">
        <ele>539.92</ele>
        <time>2016-08-12T06:01:45Z</time>
      </trkpt>
      <trkpt lat="46.35451" lon="4.60278">
        <ele>543.76</ele>
        <time>2016-08-12T06:01:59Z</time>
      </trkpt>
      <trkpt lat="46.35428" lon="4.60276">
        <ele>549.53</ele>
        <time>2016-08-12T06:02:16Z</time>
      </trkpt>
      <trkpt lat="46.35405" lon="4.60274">
        <ele>553.38</ele>
        <time>2016-08-12T06:02:32Z</time>
      </trkpt>
      <trkpt lat="46.35385" lon="4.60274">
        <ele>555.78</ele>
        <time>2016-08-12T06:02:48Z</time>
      </trkpt>
      <trkpt lat="46.35362" lon="4.6027">
        <ele>558.66</ele>
        <time>2016-08-12T06:03:05Z</time>
      </trkpt>
      <trkpt lat="46.35346" lon="4.60262">
        <ele>559.62</ele>
        <time>2016-08-12T06:03:19Z</time>
      </trkpt>
      <trkpt lat="46.3532" lon="4.60243">
        <ele>557.22</ele>
        <time>2016-08-12T06:03:39Z</time>
      </trkpt>
      <trkpt lat="46.353" lon="4.60224">
        <ele>558.18</ele>
        <time>2016-08-12T06:03:56Z</time>
      </trkpt>
      <trkpt lat="46.35281" lon="4.60204">
        <ele>559.14</ele>
        <time>2016-08-12T06:04:13Z</time>
      </trkpt>
      <trkpt lat="46.35264" lon="4.60182">
        <ele>560.59</ele>
        <time>2016-08-12T06:04:30Z</time>
      </trkpt>
      <trkpt lat="46.35251" lon="4.60168">
        <ele>561.55</ele>
        <time>2016-08-12T06:04:43Z</time>
      </trkpt>
      <trkpt lat="46.35242" lon="4.60163">
        <ele>562.99</ele>
        <time>2016-08-12T06:04:51Z</time>
      </trkpt>
      <trkpt lat="46.35231" lon="4.60162">
        <ele>562.99</ele>
        <time>2016-08-12T06:05:00Z</time>
      </trkpt>
      <trkpt lat="46.35214" lon="4.60169">
        <ele>563.47</ele>
        <time>2016-08-12T06:05:14Z</time>
      </trkpt>
      <trkpt lat="46.35194" lon="4.60175">
        <ele>566.83</ele>
        <time>2016-08-12T06:05:29Z</time>
      </trkpt>
      <trkpt lat="46.35171" lon="4.60182">
        <ele>569.24</ele>
        <time>2016-08-12T06:05:46Z</time>
      </trkpt>
      <trkpt lat="46.35148" lon="4.60182">
        <ele>571.64</ele>
        <time>2016-08-12T06:06:03Z</time>
      </trkpt>
      <trkpt lat="46.35134" lon="4.60177">
        <ele>574.04</ele>
        <time>2016-08-12T06:06:14Z</time>
      </trkpt>
      <trkpt lat="46.35118" lon="4.60171">
        <ele>575.97</ele>
        <time>2016-08-12T06:06:28Z</time>
      </trkpt>
      <trkpt lat="46.35116" lon="4.6017">
        <ele>576.45</ele>
        <time>2016-08-12T06:06:30Z</time>
      </trkpt>
      <trkpt lat="46.35112" lon="4.60167">
        <ele>576.93</ele>
        <time>2016-08-12T06:06:34Z</time>
      </trkpt>
      <trkpt lat="46.35109" lon="4.60166">
        <ele>577.41</ele>
        <time>2016-08-12T06:06:36Z</time>
      </trkpt>
      <trkpt lat="46.35098" lon="4.60161">
        <ele>578.37</ele>
        <time>2016-08-12T06:06:45Z</time>
      </trkpt>
      <trkpt lat="46.35085" lon="4.60152">
        <ele>580.77</ele>
        <time>2016-08-12T06:07:02Z</time>
      </trkpt>
      <trkpt lat="46.35072" lon="4.60146">
        <ele>583.66</ele>
        <time>2016-08-12T06:07:17Z</time>
      </trkpt>
      <trkpt lat="46.35071" lon="4.60146">
        <ele>583.66</ele>
        <time>2016-08-12T06:07:18Z</time>
      </trkpt>
      <trkpt lat="46.35046" lon="4.60134">
        <ele>587.02</ele>
        <time>2016-08-12T06:07:41Z</time>
      </trkpt>
      <trkpt lat="46.35029" lon="4.60122">
        <ele>589.43</ele>
        <time>2016-08-12T06:07:59Z</time>
      </trkpt>
      <trkpt lat="46.35012" lon="4.6011">
        <ele>588.95</ele>
        <time>2016-08-12T06:08:14Z</time>
      </trkpt>
      <trkpt lat="46.34995" lon="4.60095">
        <ele>587.98</ele>
        <time>2016-08-12T06:08:30Z</time>
      </trkpt>
      <trkpt lat="46.34984" lon="4.60083">
        <ele>586.06</ele>
        <time>2016-08-12T06:08:43Z</time>
      </trkpt>
      <trkpt lat="46.34954" lon="4.60056">
        <ele>590.39</ele>
        <time>2016-08-12T06:09:08Z</time>
      </trkpt>
      <trkpt lat="46.34937" lon="4.60044">
        <ele>593.75</ele>
        <time>2016-08-12T06:09:23Z</time>
      </trkpt>
      <trkpt lat="46.34919" lon="4.60033">
        <ele>594.71</ele>
        <time>2016-08-12T06:09:38Z</time>
      </trkpt>
      <trkpt lat="46.34901" lon="4.60011">
        <ele>596.64</ele>
        <time>2016-08-12T06:09:55Z</time>
      </trkpt>
      <trkpt lat="46.34889" lon="4.59986">
        <ele>598.08</ele>
        <time>2016-08-12T06:10:10Z</time>
      </trkpt>
      <trkpt lat="46.34872" lon="4.59961">
        <ele>597.6</ele>
        <time>2016-08-12T06:10:29Z</time>
      </trkpt>
      <trkpt lat="46.34849" lon="4.59943">
        <ele>596.15</ele>
        <time>2016-08-12T06:10:48Z</time>
      </trkpt>
      <trkpt lat="46.34828" lon="4.59927">
        <ele>595.19</ele>
        <time>2016-08-12T06:11:05Z</time>
      </trkpt>
      <trkpt lat="46.348" lon="4.59906">
        <ele>593.27</ele>
        <time>2016-08-12T06:11:27Z</time>
      </trkpt>
      <trkpt lat="46.34781" lon="4.59888">
        <ele>592.79</ele>
        <time>2016-08-12T06:11:44Z</time>
      </trkpt>
      <trkpt lat="46.34765" lon="4.59869">
        <ele>592.79</ele>
        <time>2016-08-12T06:12:00Z</time>
      </trkpt>
      <trkpt lat="46.3475" lon="4.59849">
        <ele>592.79</ele>
        <time>2016-08-12T06:12:15Z</time>
      </trkpt>
      <trkpt lat="46.34736" lon="4.59831">
        <ele>590.87</ele>
        <time>2016-08-12T06:12:29Z</time>
      </trkpt>
      <trkpt lat="46.34708" lon="4.59804">
        <ele>589.91</ele>
        <time>2016-08-12T06:12:53Z</time>
      </trkpt>
      <trkpt lat="46.34689" lon="4.59785">
        <ele>588.46</ele>
        <time>2016-08-12T06:13:10Z</time>
      </trkpt>
      <trkpt lat="46.34668" lon="4.59767">
        <ele>586.54</ele>
        <time>2016-08-12T06:13:28Z</time>
      </trkpt>
      <trkpt lat="46.34642" lon="4.59753">
        <ele>583.18</ele>
        <time>2016-08-12T06:13:48Z</time>
      </trkpt>
      <trkpt lat="46.34617" lon="4.59743">
        <ele>583.18</ele>
        <time>2016-08-12T06:14:07Z</time>
      </trkpt>
      <trkpt lat="46.34595" lon="4.59734">
        <ele>581.25</ele>
        <time>2016-08-12T06:14:24Z</time>
      </trkpt>
      <trkpt lat="46.34573" lon="4.59727">
        <ele>582.22</ele>
        <time>2016-08-12T06:14:40Z</time>
      </trkpt>
      <trkpt lat="46.34549" lon="4.59724">
        <ele>583.18</ele>
        <time>2016-08-12T06:14:57Z</time>
      </trkpt>
      <trkpt lat="46.34532" lon="4.59722">
        <ele>583.66</ele>
        <time>2016-08-12T06:15:11Z</time>
      </trkpt>
      <trkpt lat="46.34509" lon="4.5971">
        <ele>584.62</ele>
        <time>2016-08-12T06:15:29Z</time>
      </trkpt>
      <trkpt lat="46.34486" lon="4.59696">
        <ele>583.18</ele>
        <time>2016-08-12T06:15:47Z</time>
      </trkpt>
      <trkpt lat="46.34461" lon="4.59668">
        <ele>582.22</ele>
        <time>2016-08-12T06:16:10Z</time>
      </trkpt>
      <trkpt lat="46.34437" lon="4.59645">
        <ele>579.81</ele>
        <time>2016-08-12T06:16:31Z</time>
      </trkpt>
      <trkpt lat="46.34414" lon="4.59625">
        <ele>577.89</ele>
        <time>2016-08-12T06:16:50Z</time>
      </trkpt>
      <trkpt lat="46.34392" lon="4.59603">
        <ele>578.37</ele>
        <time>2016-08-12T06:17:10Z</time>
      </trkpt>
      <trkpt lat="46.34376" lon="4.59575">
        <ele>578.85</ele>
        <time>2016-08-12T06:17:28Z</time>
      </trkpt>
      <trkpt lat="46.34365" lon="4.59543">
        <ele>579.33</ele>
        <time>2016-08-12T06:17:46Z</time>
      </trkpt>
      <trkpt lat="46.34352" lon="4.59512">
        <ele>576.45</ele>
        <time>2016-08-12T06:18:05Z</time>
      </trkpt>
      <trkpt lat="46.34336" lon="4.59492">
        <ele>572.6</ele>
        <time>2016-08-12T06:18:22Z</time>
      </trkpt>
      <trkpt lat="46.34311" lon="4.59482">
        <ele>570.68</ele>
        <time>2016-08-12T06:18:40Z</time>
      </trkpt>
      <trkpt lat="46.34288" lon="4.59475">
        <ele>571.64</ele>
        <time>2016-08-12T06:18:57Z</time>
      </trkpt>
      <trkpt lat="46.34269" lon="4.5947">
        <ele>571.16</ele>
        <time>2016-08-12T06:19:12Z</time>
      </trkpt>
      <trkpt lat="46.34242" lon="4.59457">
        <ele>570.2</ele>
        <time>2016-08-12T06:19:32Z</time>
      </trkpt>
      <trkpt lat="46.34214" lon="4.59458">
        <ele>570.2</ele>
        <time>2016-08-12T06:19:52Z</time>
      </trkpt>
      <trkpt lat="46.34186" lon="4.59467">
        <ele>569.24</ele>
        <time>2016-08-12T06:20:12Z</time>
      </trkpt>
      <trkpt lat="46.34166" lon="4.5948">
        <ele>569.24</ele>
        <time>2016-08-12T06:20:28Z</time>
      </trkpt>
      <trkpt lat="46.34144" lon="4.59495">
        <ele>569.24</ele>
        <time>2016-08-12T06:20:45Z</time>
      </trkpt>
      <trkpt lat="46.34121" lon="4.59507">
        <ele>566.83</ele>
        <time>2016-08-12T06:21:03Z</time>
      </trkpt>
      <trkpt lat="46.34096" lon="4.59507">
        <ele>564.43</ele>
        <time>2016-08-12T06:21:22Z</time>
      </trkpt>
      <trkpt lat="46.34074" lon="4.59502">
        <ele>563.47</ele>
        <time>2016-08-12T06:21:38Z</time>
      </trkpt>
      <trkpt lat="46.3406" lon="4.59503">
        <ele>563.95</ele>
        <time>2016-08-12T06:21:51Z</time>
      </trkpt>
      <trkpt lat="46.34039" lon="4.59504">
        <ele>565.39</ele>
        <time>2016-08-12T06:22:08Z</time>
      </trkpt>
      <trkpt lat="46.34014" lon="4.59505">
        <ele>565.87</ele>
        <time>2016-08-12T06:22:25Z</time>
      </trkpt>
      <trkpt lat="46.33991" lon="4.59505">
        <ele>566.83</ele>
        <time>2016-08-12T06:22:42Z</time>
      </trkpt>
      <trkpt lat="46.33968" lon="4.59503">
        <ele>566.83</ele>
        <time>2016-08-12T06:22:59Z</time>
      </trkpt>
      <trkpt lat="46.33946" lon="4.59505">
        <ele>566.35</ele>
        <time>2016-08-12T06:23:15Z</time>
      </trkpt>
      <trkpt lat="46.33919" lon="4.59509">
        <ele>565.39</ele>
        <time>2016-08-12T06:23:34Z</time>
      </trkpt>
      <trkpt lat="46.33896" lon="4.59501">
        <ele>563.47</ele>
        <time>2016-08-12T06:23:52Z</time>
      </trkpt>
      <trkpt lat="46.33878" lon="4.59492">
        <ele>562.03</ele>
        <time>2016-08-12T06:24:07Z</time>
      </trkpt>
      <trkpt lat="46.33863" lon="4.59487">
        <ele>561.07</ele>
        <time>2016-08-12T06:24:21Z</time>
      </trkpt>
      <trkpt lat="46.33841" lon="4.59479">
        <ele>559.14</ele>
        <time>2016-08-12T06:24:35Z</time>
      </trkpt>
      <trkpt lat="46.33824" lon="4.5947">
        <ele>555.3</ele>
        <time>2016-08-12T06:25:32Z</time>
      </trkpt>
      <trkpt lat="46.33801" lon="4.59456">
        <ele>559.62</ele>
        <time>2016-08-12T06:25:54Z</time>
      </trkpt>
      <trkpt lat="46.33785" lon="4.59451">
        <ele>559.62</ele>
        <time>2016-08-12T06:26:07Z</time>
      </trkpt>
      <trkpt lat="46.3375" lon="4.59449">
        <ele>562.51</ele>
        <time>2016-08-12T06:26:34Z</time>
      </trkpt>
      <trkpt lat="46.3373" lon="4.59453">
        <ele>560.11</ele>
        <time>2016-08-12T06:26:50Z</time>
      </trkpt>
      <trkpt lat="46.33707" lon="4.59463">
        <ele>564.43</ele>
        <time>2016-08-12T06:27:06Z</time>
      </trkpt>
      <trkpt lat="46.3369" lon="4.59465">
        <ele>565.39</ele>
        <time>2016-08-12T06:27:19Z</time>
      </trkpt>
      <trkpt lat="46.33668" lon="4.59466">
        <ele>565.87</ele>
        <time>2016-08-12T06:27:35Z</time>
      </trkpt>
      <trkpt lat="46.33646" lon="4.59467">
        <ele>565.39</ele>
        <time>2016-08-12T06:27:52Z</time>
      </trkpt>
      <trkpt lat="46.3364" lon="4.59468">
        <ele>565.39</ele>
        <time>2016-08-12T06:27:58Z</time>
      </trkpt>
      <trkpt lat="46.33635" lon="4.59468">
        <ele>565.87</ele>
        <time>2016-08-12T06:28:03Z</time>
      </trkpt>
      <trkpt lat="46.33629" lon="4.5947">
        <ele>565.87</ele>
        <time>2016-08-12T06:28:08Z</time>
      </trkpt>
      <trkpt lat="46.33616" lon="4.59474">
        <ele>562.51</ele>
        <time>2016-08-12T06:28:23Z</time>
      </trkpt>
      <trkpt lat="46.336" lon="4.59478">
        <ele>557.7</ele>
        <time>2016-08-12T06:28:37Z</time>
      </trkpt>
      <trkpt lat="46.33591" lon="4.5948">
        <ele>558.18</ele>
        <time>2016-08-12T06:28:42Z</time>
      </trkpt>
      <trkpt lat="46.33573" lon="4.5948">
        <ele>555.78</ele>
        <time>2016-08-12T06:28:56Z</time>
      </trkpt>
      <trkpt lat="46.33552" lon="4.59469">
        <ele>560.11</ele>
        <time>2016-08-12T06:29:13Z</time>
      </trkpt>
      <trkpt lat="46.33529" lon="4.59454">
        <ele>563.47</ele>
        <time>2016-08-12T06:29:30Z</time>
      </trkpt>
      <trkpt lat="46.33507" lon="4.5944">
        <ele>566.35</ele>
        <time>2016-08-12T06:29:48Z</time>
      </trkpt>
      <trkpt lat="46.33488" lon="4.59427">
        <ele>567.8</ele>
        <time>2016-08-12T06:30:04Z</time>
      </trkpt>
      <trkpt lat="46.33471" lon="4.59415">
        <ele>567.8</ele>
        <time>2016-08-12T06:30:18Z</time>
      </trkpt>
      <trkpt lat="46.33453" lon="4.59408">
        <ele>566.83</ele>
        <time>2016-08-12T06:30:32Z</time>
      </trkpt>
      <trkpt lat="46.33434" lon="4.594">
        <ele>566.83</ele>
        <time>2016-08-12T06:30:48Z</time>
      </trkpt>
      <trkpt lat="46.33414" lon="4.59389">
        <ele>567.8</ele>
        <time>2016-08-12T06:31:04Z</time>
      </trkpt>
      <trkpt lat="46.33395" lon="4.59379">
        <ele>568.76</ele>
        <time>2016-08-12T06:31:19Z</time>
      </trkpt>
      <trkpt lat="46.33372" lon="4.59369">
        <ele>569.24</ele>
        <time>2016-08-12T06:31:36Z</time>
      </trkpt>
      <trkpt lat="46.33354" lon="4.59358">
        <ele>571.16</ele>
        <time>2016-08-12T06:31:52Z</time>
      </trkpt>
      <trkpt lat="46.33335" lon="4.59347">
        <ele>571.16</ele>
        <time>2016-08-12T06:32:07Z</time>
      </trkpt>
      <trkpt lat="46.33318" lon="4.59335">
        <ele>569.72</ele>
        <time>2016-08-12T06:32:23Z</time>
      </trkpt>
      <trkpt lat="46.33304" lon="4.59314">
        <ele>566.35</ele>
        <time>2016-08-12T06:32:39Z</time>
      </trkpt>
      <trkpt lat="46.33293" lon="4.59296">
        <ele>565.39</ele>
        <time>2016-08-12T06:32:52Z</time>
      </trkpt>
      <trkpt lat="46.33282" lon="4.59272">
        <ele>562.99</ele>
        <time>2016-08-12T06:33:08Z</time>
      </trkpt>
      <trkpt lat="46.3327" lon="4.59245">
        <ele>562.03</ele>
        <time>2016-08-12T06:33:27Z</time>
      </trkpt>
      <trkpt lat="46.33251" lon="4.59239">
        <ele>561.55</ele>
        <time>2016-08-12T06:33:43Z</time>
      </trkpt>
      <trkpt lat="46.33231" lon="4.5924">
        <ele>561.55</ele>
        <time>2016-08-12T06:33:59Z</time>
      </trkpt>
      <trkpt lat="46.33214" lon="4.59243">
        <ele>564.43</ele>
        <time>2016-08-12T06:34:17Z</time>
      </trkpt>
      <trkpt lat="46.33192" lon="4.59245">
        <ele>566.35</ele>
        <time>2016-08-12T06:34:32Z</time>
      </trkpt>
      <trkpt lat="46.33169" lon="4.59245">
        <ele>567.8</ele>
        <time>2016-08-12T06:34:49Z</time>
      </trkpt>
      <trkpt lat="46.33153" lon="4.59248">
        <ele>568.76</ele>
        <time>2016-08-12T06:35:03Z</time>
      </trkpt>
      <trkpt lat="46.33138" lon="4.59251">
        <ele>571.16</ele>
        <time>2016-08-12T06:35:16Z</time>
      </trkpt>
      <trkpt lat="46.33121" lon="4.59252">
        <ele>573.08</ele>
        <time>2016-08-12T06:35:30Z</time>
      </trkpt>
      <trkpt lat="46.33105" lon="4.59248">
        <ele>574.04</ele>
        <time>2016-08-12T06:35:45Z</time>
      </trkpt>
      <trkpt lat="46.331" lon="4.59246">
        <ele>573.08</ele>
        <time>2016-08-12T06:35:48Z</time>
      </trkpt>
      <trkpt lat="46.33094" lon="4.59242">
        <ele>573.08</ele>
        <time>2016-08-12T06:35:52Z</time>
      </trkpt>
      <trkpt lat="46.33076" lon="4.59233">
        <ele>572.12</ele>
        <time>2016-08-12T06:36:06Z</time>
      </trkpt>
      <trkpt lat="46.33059" lon="4.59221">
        <ele>569.72</ele>
        <time>2016-08-12T06:36:22Z</time>
      </trkpt>
      <trkpt lat="46.3304" lon="4.59211">
        <ele>568.76</ele>
        <time>2016-08-12T06:36:38Z</time>
      </trkpt>
      <trkpt lat="46.33021" lon="4.59205">
        <ele>565.87</ele>
        <time>2016-08-12T06:36:54Z</time>
      </trkpt>
      <trkpt lat="46.32996" lon="4.59205">
        <ele>564.91</ele>
        <time>2016-08-12T06:37:13Z</time>
      </trkpt>
      <trkpt lat="46.32974" lon="4.59215">
        <ele>566.83</ele>
        <time>2016-08-12T06:37:32Z</time>
      </trkpt>
      <trkpt lat="46.32973" lon="4.59215">
        <ele>566.83</ele>
        <time>2016-08-12T06:37:33Z</time>
      </trkpt>
      <trkpt lat="46.32964" lon="4.59218">
        <ele>568.28</ele>
        <time>2016-08-12T06:37:42Z</time>
      </trkpt>
      <trkpt lat="46.32942" lon="4.59214">
        <ele>569.24</ele>
        <time>2016-08-12T06:37:58Z</time>
      </trkpt>
      <trkpt lat="46.32928" lon="4.59209">
        <ele>567.32</ele>
        <time>2016-08-12T06:38:12Z</time>
      </trkpt>
      <trkpt lat="46.3291" lon="4.59197">
        <ele>566.83</ele>
        <time>2016-08-12T06:38:29Z</time>
      </trkpt>
      <trkpt lat="46.32902" lon="4.59188">
        <ele>565.87</ele>
        <time>2016-08-12T06:38:39Z</time>
      </trkpt>
      <trkpt lat="46.32894" lon="4.59167">
        <ele>565.87</ele>
        <time>2016-08-12T06:38:54Z</time>
      </trkpt>
      <trkpt lat="46.3289" lon="4.59158">
        <ele>564.91</ele>
        <time>2016-08-12T06:39:01Z</time>
      </trkpt>
      <trkpt lat="46.32884" lon="4.59154">
        <ele>563.95</ele>
        <time>2016-08-12T06:39:06Z</time>
      </trkpt>
      <trkpt lat="46.32864" lon="4.59149">
        <ele>561.07</ele>
        <time>2016-08-12T06:39:23Z</time>
      </trkpt>
      <trkpt lat="46.32845" lon="4.59148">
        <ele>559.62</ele>
        <time>2016-08-12T06:39:39Z</time>
      </trkpt>
      <trkpt lat="46.32825" lon="4.59146">
        <ele>557.7</ele>
        <time>2016-08-12T06:39:55Z</time>
      </trkpt>
      <trkpt lat="46.32802" lon="4.59147">
        <ele>556.74</ele>
        <time>2016-08-12T06:40:13Z</time>
      </trkpt>
      <trkpt lat="46.32787" lon="4.59149">
        <ele>555.78</ele>
        <time>2016-08-12T06:40:27Z</time>
      </trkpt>
      <trkpt lat="46.32754" lon="4.59154">
        <ele>559.62</ele>
        <time>2016-08-12T06:40:55Z</time>
      </trkpt>
      <trkpt lat="46.32749" lon="4.59156">
        <ele>560.11</ele>
        <time>2016-08-12T06:41:02Z</time>
      </trkpt>
      <trkpt lat="46.32703" lon="4.59171">
        <ele>561.07</ele>
        <time>2016-08-12T06:41:39Z</time>
      </trkpt>
      <trkpt lat="46.32679" lon="4.59179">
        <ele>561.07</ele>
        <time>2016-08-12T06:41:57Z</time>
      </trkpt>
      <trkpt lat="46.32647" lon="4.59189">
        <ele>559.62</ele>
        <time>2016-08-12T06:42:42Z</time>
      </trkpt>
      <trkpt lat="46.32627" lon="4.5919">
        <ele>561.55</ele>
        <time>2016-08-12T06:42:57Z</time>
      </trkpt>
      <trkpt lat="46.32606" lon="4.59192">
        <ele>562.51</ele>
        <time>2016-08-12T06:43:13Z</time>
      </trkpt>
      <trkpt lat="46.32588" lon="4.59185">
        <ele>562.99</ele>
        <time>2016-08-12T06:43:28Z</time>
      </trkpt>
      <trkpt lat="46.32572" lon="4.59176">
        <ele>563.95</ele>
        <time>2016-08-12T06:43:44Z</time>
      </trkpt>
      <trkpt lat="46.32568" lon="4.59174">
        <ele>564.91</ele>
        <time>2016-08-12T06:43:47Z</time>
      </trkpt>
      <trkpt lat="46.32548" lon="4.59164">
        <ele>563.95</ele>
        <time>2016-08-12T06:44:02Z</time>
      </trkpt>
      <trkpt lat="46.32526" lon="4.59156">
        <ele>563.95</ele>
        <time>2016-08-12T06:44:21Z</time>
      </trkpt>
      <trkpt lat="46.32504" lon="4.59159">
        <ele>561.07</ele>
        <time>2016-08-12T06:44:37Z</time>
      </trkpt>
      <trkpt lat="46.32486" lon="4.59166">
        <ele>559.14</ele>
        <time>2016-08-12T06:44:52Z</time>
      </trkpt>
      <trkpt lat="46.32466" lon="4.59172">
        <ele>558.66</ele>
        <time>2016-08-12T06:45:08Z</time>
      </trkpt>
      <trkpt lat="46.32437" lon="4.59176">
        <ele>561.55</ele>
        <time>2016-08-12T06:45:33Z</time>
      </trkpt>
      <trkpt lat="46.3243" lon="4.59178">
        <ele>562.03</ele>
        <time>2016-08-12T06:45:38Z</time>
      </trkpt>
      <trkpt lat="46.32408" lon="4.59182">
        <ele>564.43</ele>
        <time>2016-08-12T06:45:54Z</time>
      </trkpt>
      <trkpt lat="46.32388" lon="4.59183">
        <ele>564.43</ele>
        <time>2016-08-12T06:46:09Z</time>
      </trkpt>
      <trkpt lat="46.32385" lon="4.59185">
        <ele>563.95</ele>
        <time>2016-08-12T06:46:13Z</time>
      </trkpt>
      <trkpt lat="46.32369" lon="4.59196">
        <ele>562.99</ele>
        <time>2016-08-12T06:46:28Z</time>
      </trkpt>
      <trkpt lat="46.32362" lon="4.59199">
        <ele>562.03</ele>
        <time>2016-08-12T06:46:35Z</time>
      </trkpt>
      <trkpt lat="46.32339" lon="4.59209">
        <ele>557.7</ele>
        <time>2016-08-12T06:46:55Z</time>
      </trkpt>
      <trkpt lat="46.32324" lon="4.59221">
        <ele>553.38</ele>
        <time>2016-08-12T06:47:09Z</time>
      </trkpt>
      <trkpt lat="46.32313" lon="4.59237">
        <ele>552.9</ele>
        <time>2016-08-12T06:47:26Z</time>
      </trkpt>
      <trkpt lat="46.323" lon="4.5927">
        <ele>552.9</ele>
        <time>2016-08-12T06:48:09Z</time>
      </trkpt>
      <trkpt lat="46.32287" lon="4.5929">
        <ele>553.86</ele>
        <time>2016-08-12T06:48:26Z</time>
      </trkpt>
      <trkpt lat="46.32267" lon="4.5931">
        <ele>555.3</ele>
        <time>2016-08-12T06:48:45Z</time>
      </trkpt>
      <trkpt lat="46.3225" lon="4.59324">
        <ele>554.82</ele>
        <time>2016-08-12T06:49:01Z</time>
      </trkpt>
      <trkpt lat="46.32225" lon="4.59327">
        <ele>551.45</ele>
        <time>2016-08-12T06:49:18Z</time>
      </trkpt>
      <trkpt lat="46.32206" lon="4.59327">
        <ele>550.97</ele>
        <time>2016-08-12T06:49:34Z</time>
      </trkpt>
      <trkpt lat="46.32195" lon="4.59328">
        <ele>551.93</ele>
        <time>2016-08-12T06:49:43Z</time>
      </trkpt>
      <trkpt lat="46.32171" lon="4.59317">
        <ele>551.45</ele>
        <time>2016-08-12T06:50:01Z</time>
      </trkpt>
      <trkpt lat="46.32165" lon="4.59312">
        <ele>551.45</ele>
        <time>2016-08-12T06:50:06Z</time>
      </trkpt>
      <trkpt lat="46.32142" lon="4.59298">
        <ele>550.97</ele>
        <time>2016-08-12T06:50:28Z</time>
      </trkpt>
      <trkpt lat="46.32137" lon="4.59294">
        <ele>550.01</ele>
        <time>2016-08-12T06:50:33Z</time>
      </trkpt>
      <trkpt lat="46.32128" lon="4.59284">
        <ele>546.65</ele>
        <time>2016-08-12T06:50:47Z</time>
      </trkpt>
      <trkpt lat="46.32117" lon="4.59271">
        <ele>542.32</ele>
        <time>2016-08-12T06:51:01Z</time>
      </trkpt>
      <trkpt lat="46.32116" lon="4.59271">
        <ele>541.84</ele>
        <time>2016-08-12T06:51:02Z</time>
      </trkpt>
      <trkpt lat="46.32108" lon="4.59262">
        <ele>538.96</ele>
        <time>2016-08-12T06:51:11Z</time>
      </trkpt>
      <trkpt lat="46.32097" lon="4.5925">
        <ele>538.96</ele>
        <time>2016-08-12T06:51:23Z</time>
      </trkpt>
      <trkpt lat="46.32088" lon="4.59238">
        <ele>535.11</ele>
        <time>2016-08-12T06:51:36Z</time>
      </trkpt>
      <trkpt lat="46.32082" lon="4.59232">
        <ele>538.48</ele>
        <time>2016-08-12T06:51:41Z</time>
      </trkpt>
      <trkpt lat="46.32064" lon="4.59213">
        <ele>547.13</ele>
        <time>2016-08-12T06:51:56Z</time>
      </trkpt>
      <trkpt lat="46.3205" lon="4.59194">
        <ele>548.09</ele>
        <time>2016-08-12T06:52:13Z</time>
      </trkpt>
      <trkpt lat="46.32036" lon="4.59168">
        <ele>550.49</ele>
        <time>2016-08-12T06:52:31Z</time>
      </trkpt>
      <trkpt lat="46.32024" lon="4.5914">
        <ele>552.41</ele>
        <time>2016-08-12T06:52:48Z</time>
      </trkpt>
      <trkpt lat="46.32014" lon="4.59116">
        <ele>553.38</ele>
        <time>2016-08-12T06:53:05Z</time>
      </trkpt>
      <trkpt lat="46.31996" lon="4.59094">
        <ele>554.82</ele>
        <time>2016-08-12T06:53:22Z</time>
      </trkpt>
      <trkpt lat="46.31974" lon="4.59071">
        <ele>553.86</ele>
        <time>2016-08-12T06:53:40Z</time>
      </trkpt>
      <trkpt lat="46.3195" lon="4.59067">
        <ele>549.53</ele>
        <time>2016-08-12T06:53:59Z</time>
      </trkpt>
      <trkpt lat="46.31925" lon="4.59065">
        <ele>546.65</ele>
        <time>2016-08-12T06:54:18Z</time>
      </trkpt>
      <trkpt lat="46.31908" lon="4.59046">
        <ele>544.24</ele>
        <time>2016-08-12T06:54:35Z</time>
      </trkpt>
      <trkpt lat="46.31886" lon="4.59045">
        <ele>543.76</ele>
        <time>2016-08-12T06:54:52Z</time>
      </trkpt>
      <trkpt lat="46.31862" lon="4.59056">
        <ele>545.2</ele>
        <time>2016-08-12T06:55:10Z</time>
      </trkpt>
      <trkpt lat="46.31845" lon="4.5907">
        <ele>548.57</ele>
        <time>2016-08-12T06:55:26Z</time>
      </trkpt>
      <trkpt lat="46.31823" lon="4.59095">
        <ele>553.38</ele>
        <time>2016-08-12T06:55:45Z</time>
      </trkpt>
      <trkpt lat="46.31799" lon="4.59108">
        <ele>555.3</ele>
        <time>2016-08-12T06:56:03Z</time>
      </trkpt>
      <trkpt lat="46.31779" lon="4.59121">
        <ele>555.78</ele>
        <time>2016-08-12T06:56:19Z</time>
      </trkpt>
      <trkpt lat="46.31759" lon="4.59129">
        <ele>557.7</ele>
        <time>2016-08-12T06:56:35Z</time>
      </trkpt>
      <trkpt lat="46.31735" lon="4.59137">
        <ele>555.78</ele>
        <time>2016-08-12T06:56:53Z</time>
      </trkpt>
      <trkpt lat="46.31709" lon="4.59146">
        <ele>555.3</ele>
        <time>2016-08-12T06:57:12Z</time>
      </trkpt>
      <trkpt lat="46.31684" lon="4.5916">
        <ele>554.82</ele>
        <time>2016-08-12T06:57:32Z</time>
      </trkpt>
      <trkpt lat="46.31661" lon="4.5917">
        <ele>554.34</ele>
        <time>2016-08-12T06:57:50Z</time>
      </trkpt>
      <trkpt lat="46.31636" lon="4.59177">
        <ele>552.9</ele>
        <time>2016-08-12T06:58:09Z</time>
      </trkpt>
      <trkpt lat="46.31612" lon="4.59185">
        <ele>551.93</ele>
        <time>2016-08-12T06:58:27Z</time>
      </trkpt>
      <trkpt lat="46.3159" lon="4.59193">
        <ele>551.45</ele>
        <time>2016-08-12T06:58:44Z</time>
      </trkpt>
      <trkpt lat="46.3157" lon="4.59201">
        <ele>550.97</ele>
        <time>2016-08-12T06:59:00Z</time>
      </trkpt>
      <trkpt lat="46.31551" lon="4.59207">
        <ele>551.93</ele>
        <time>2016-08-12T06:59:15Z</time>
      </trkpt>
      <trkpt lat="46.31532" lon="4.5921">
        <ele>553.38</ele>
        <time>2016-08-12T06:59:30Z</time>
      </trkpt>
      <trkpt lat="46.31515" lon="4.59214">
        <ele>552.9</ele>
        <time>2016-08-12T06:59:44Z</time>
      </trkpt>
      <trkpt lat="46.31496" lon="4.59233">
        <ele>554.34</ele>
        <time>2016-08-12T07:00:01Z</time>
      </trkpt>
      <trkpt lat="46.31479" lon="4.59241">
        <ele>556.26</ele>
        <time>2016-08-12T07:00:14Z</time>
      </trkpt>
      <trkpt lat="46.31457" lon="4.5926">
        <ele>560.59</ele>
        <time>2016-08-12T07:00:32Z</time>
      </trkpt>
      <trkpt lat="46.31441" lon="4.59279">
        <ele>561.07</ele>
        <time>2016-08-12T07:00:48Z</time>
      </trkpt>
      <trkpt lat="46.31428" lon="4.59303">
        <ele>562.03</ele>
        <time>2016-08-12T07:01:03Z</time>
      </trkpt>
      <trkpt lat="46.31413" lon="4.59336">
        <ele>556.74</ele>
        <time>2016-08-12T07:01:22Z</time>
      </trkpt>
      <trkpt lat="46.31406" lon="4.59367">
        <ele>553.86</ele>
        <time>2016-08-12T07:01:38Z</time>
      </trkpt>
      <trkpt lat="46.31401" lon="4.59401">
        <ele>552.41</ele>
        <time>2016-08-12T07:01:55Z</time>
      </trkpt>
      <trkpt lat="46.31396" lon="4.59435">
        <ele>549.53</ele>
        <time>2016-08-12T07:02:12Z</time>
      </trkpt>
      <trkpt lat="46.31394" lon="4.59472">
        <ele>541.36</ele>
        <time>2016-08-12T07:02:31Z</time>
      </trkpt>
      <trkpt lat="46.31395" lon="4.59516">
        <ele>541.84</ele>
        <time>2016-08-12T07:02:52Z</time>
      </trkpt>
      <trkpt lat="46.31392" lon="4.59561">
        <ele>538.48</ele>
        <time>2016-08-12T07:03:13Z</time>
      </trkpt>
      <trkpt lat="46.31391" lon="4.59608">
        <ele>536.55</ele>
        <time>2016-08-12T07:03:38Z</time>
      </trkpt>
      <trkpt lat="46.31389" lon="4.59649">
        <ele>532.71</ele>
        <time>2016-08-12T07:03:58Z</time>
      </trkpt>
      <trkpt lat="46.31377" lon="4.59687">
        <ele>532.71</ele>
        <time>2016-08-12T07:04:18Z</time>
      </trkpt>
      <trkpt lat="46.31363" lon="4.59717">
        <ele>532.23</ele>
        <time>2016-08-12T07:04:37Z</time>
      </trkpt>
      <trkpt lat="46.31342" lon="4.59749">
        <ele>534.15</ele>
        <time>2016-08-12T07:04:58Z</time>
      </trkpt>
      <trkpt lat="46.31319" lon="4.59771">
        <ele>533.19</ele>
        <time>2016-08-12T07:05:18Z</time>
      </trkpt>
      <trkpt lat="46.31289" lon="4.59785">
        <ele>533.67</ele>
        <time>2016-08-12T07:05:41Z</time>
      </trkpt>
      <trkpt lat="46.31262" lon="4.59798">
        <ele>530.79</ele>
        <time>2016-08-12T07:06:02Z</time>
      </trkpt>
      <trkpt lat="46.31238" lon="4.59819">
        <ele>528.86</ele>
        <time>2016-08-12T07:06:22Z</time>
      </trkpt>
      <trkpt lat="46.31221" lon="4.59814">
        <ele>515.4</ele>
        <time>2016-08-12T07:07:30Z</time>
      </trkpt>
      <trkpt lat="46.31205" lon="4.59808">
        <ele>516.37</ele>
        <time>2016-08-12T07:07:42Z</time>
      </trkpt>
      <trkpt lat="46.31193" lon="4.59804">
        <ele>518.29</ele>
        <time>2016-08-12T07:07:52Z</time>
      </trkpt>
      <trkpt lat="46.31174" lon="4.59799">
        <ele>518.29</ele>
        <time>2016-08-12T07:08:10Z</time>
      </trkpt>
      <trkpt lat="46.31135" lon="4.59796">
        <ele>519.25</ele>
        <time>2016-08-12T07:08:44Z</time>
      </trkpt>
      <trkpt lat="46.31093" lon="4.59782">
        <ele>521.65</ele>
        <time>2016-08-12T07:09:15Z</time>
      </trkpt>
      <trkpt lat="46.31075" lon="4.59772">
        <ele>520.21</ele>
        <time>2016-08-12T07:09:30Z</time>
      </trkpt>
      <trkpt lat="46.31049" lon="4.59758">
        <ele>518.77</ele>
        <time>2016-08-12T07:09:52Z</time>
      </trkpt>
      <trkpt lat="46.31027" lon="4.59747">
        <ele>519.25</ele>
        <time>2016-08-12T07:10:09Z</time>
      </trkpt>
      <trkpt lat="46.30996" lon="4.5974">
        <ele>522.13</ele>
        <time>2016-08-12T07:11:29Z</time>
      </trkpt>
      <trkpt lat="46.3097" lon="4.59738">
        <ele>522.61</ele>
        <time>2016-08-12T07:11:48Z</time>
      </trkpt>
      <trkpt lat="46.30947" lon="4.59739">
        <ele>522.61</ele>
        <time>2016-08-12T07:12:05Z</time>
      </trkpt>
      <trkpt lat="46.30925" lon="4.59742">
        <ele>519.73</ele>
        <time>2016-08-12T07:12:56Z</time>
      </trkpt>
      <trkpt lat="46.309" lon="4.59744">
        <ele>515.88</ele>
        <time>2016-08-12T07:13:15Z</time>
      </trkpt>
      <trkpt lat="46.30874" lon="4.59747">
        <ele>513.48</ele>
        <time>2016-08-12T07:13:35Z</time>
      </trkpt>
      <trkpt lat="46.30843" lon="4.59749">
        <ele>510.6</ele>
        <time>2016-08-12T07:14:09Z</time>
      </trkpt>
      <trkpt lat="46.30823" lon="4.5975">
        <ele>508.67</ele>
        <time>2016-08-12T07:14:25Z</time>
      </trkpt>
      <trkpt lat="46.30804" lon="4.59743">
        <ele>502.91</ele>
        <time>2016-08-12T07:14:43Z</time>
      </trkpt>
      <trkpt lat="46.30782" lon="4.5976">
        <ele>497.62</ele>
        <time>2016-08-12T07:15:04Z</time>
      </trkpt>
      <trkpt lat="46.30759" lon="4.59772">
        <ele>496.18</ele>
        <time>2016-08-12T07:15:24Z</time>
      </trkpt>
      <trkpt lat="46.30735" lon="4.59775">
        <ele>494.74</ele>
        <time>2016-08-12T07:15:42Z</time>
      </trkpt>
      <trkpt lat="46.30718" lon="4.59764">
        <ele>493.77</ele>
        <time>2016-08-12T07:15:58Z</time>
      </trkpt>
      <trkpt lat="46.30703" lon="4.59744">
        <ele>488.01</ele>
        <time>2016-08-12T07:16:16Z</time>
      </trkpt>
      <trkpt lat="46.30689" lon="4.59758">
        <ele>485.6</ele>
        <time>2016-08-12T07:16:32Z</time>
      </trkpt>
      <trkpt lat="46.30691" lon="4.59817">
        <ele>482.72</ele>
        <time>2016-08-12T07:17:58Z</time>
      </trkpt>
      <trkpt lat="46.3069" lon="4.59827">
        <ele>479.84</ele>
        <time>2016-08-12T07:18:05Z</time>
      </trkpt>
      <trkpt lat="46.30701" lon="4.59855">
        <ele>475.51</ele>
        <time>2016-08-12T07:18:24Z</time>
      </trkpt>
      <trkpt lat="46.30704" lon="4.59866">
        <ele>475.51</ele>
        <time>2016-08-12T07:18:30Z</time>
      </trkpt>
      <trkpt lat="46.30717" lon="4.59898">
        <ele>476.47</ele>
        <time>2016-08-12T07:18:50Z</time>
      </trkpt>
      <trkpt lat="46.30726" lon="4.59915">
        <ele>475.51</ele>
        <time>2016-08-12T07:19:03Z</time>
      </trkpt>
      <trkpt lat="46.30735" lon="4.59933">
        <ele>472.63</ele>
        <time>2016-08-12T07:19:17Z</time>
      </trkpt>
      <trkpt lat="46.30749" lon="4.59957">
        <ele>469.74</ele>
        <time>2016-08-12T07:19:35Z</time>
      </trkpt>
      <trkpt lat="46.30758" lon="4.59977">
        <ele>467.34</ele>
        <time>2016-08-12T07:19:52Z</time>
      </trkpt>
      <trkpt lat="46.3076" lon="4.59994">
        <ele>469.26</ele>
        <time>2016-08-12T07:19:58Z</time>
      </trkpt>
      <trkpt lat="46.30764" lon="4.60017">
        <ele>469.74</ele>
        <time>2016-08-12T07:20:12Z</time>
      </trkpt>
      <trkpt lat="46.30763" lon="4.60036">
        <ele>468.3</ele>
        <time>2016-08-12T07:20:26Z</time>
      </trkpt>
      <trkpt lat="46.30764" lon="4.60052">
        <ele>466.38</ele>
        <time>2016-08-12T07:20:39Z</time>
      </trkpt>
      <trkpt lat="46.30765" lon="4.60055">
        <ele>466.38</ele>
        <time>2016-08-12T07:20:42Z</time>
      </trkpt>
      <trkpt lat="46.3076" lon="4.60108">
        <ele>463.49</ele>
        <time>2016-08-12T07:26:41Z</time>
      </trkpt>
      <trkpt lat="46.30755" lon="4.60138">
        <ele>459.17</ele>
        <time>2016-08-12T07:26:59Z</time>
      </trkpt>
      <trkpt lat="46.30751" lon="4.60193">
        <ele>466.86</ele>
        <time>2016-08-12T07:27:31Z</time>
      </trkpt>
      <trkpt lat="46.30751" lon="4.6022">
        <ele>472.63</ele>
        <time>2016-08-12T07:27:55Z</time>
      </trkpt>
      <trkpt lat="46.3075" lon="4.60219">
        <ele>470.7</ele>
        <time>2016-08-12T08:28:23Z</time>
      </trkpt>
      <trkpt lat="46.3073" lon="4.60227">
        <ele>471.18</ele>
        <time>2016-08-12T08:28:38Z</time>
      </trkpt>
      <trkpt lat="46.3072" lon="4.60233">
        <ele>470.7</ele>
        <time>2016-08-12T08:28:48Z</time>
      </trkpt>
      <trkpt lat="46.30715" lon="4.60237">
        <ele>472.14</ele>
        <time>2016-08-12T08:28:55Z</time>
      </trkpt>
      <trkpt lat="46.30705" lon="4.60243">
        <ele>473.59</ele>
        <time>2016-08-12T08:29:23Z</time>
      </trkpt>
      <trkpt lat="46.30691" lon="4.60251">
        <ele>477.43</ele>
        <time>2016-08-12T08:29:39Z</time>
      </trkpt>
      <trkpt lat="46.30668" lon="4.60248">
        <ele>473.11</ele>
        <time>2016-08-12T08:29:57Z</time>
      </trkpt>
      <trkpt lat="46.30645" lon="4.60235">
        <ele>475.99</ele>
        <time>2016-08-12T08:32:33Z</time>
      </trkpt>
      <trkpt lat="46.30642" lon="4.60234">
        <ele>475.99</ele>
        <time>2016-08-12T08:32:38Z</time>
      </trkpt>
      <trkpt lat="46.30628" lon="4.60226">
        <ele>476.47</ele>
        <time>2016-08-12T08:32:48Z</time>
      </trkpt>
      <trkpt lat="46.30619" lon="4.60223">
        <ele>475.51</ele>
        <time>2016-08-12T08:32:55Z</time>
      </trkpt>
      <trkpt lat="46.30597" lon="4.60224">
        <ele>472.14</ele>
        <time>2016-08-12T08:33:13Z</time>
      </trkpt>
      <trkpt lat="46.30567" lon="4.60224">
        <ele>466.86</ele>
        <time>2016-08-12T08:33:39Z</time>
      </trkpt>
      <trkpt lat="46.30533" lon="4.60231">
        <ele>463.49</ele>
        <time>2016-08-12T08:34:04Z</time>
      </trkpt>
      <trkpt lat="46.30507" lon="4.60238">
        <ele>463.97</ele>
        <time>2016-08-12T08:34:21Z</time>
      </trkpt>
      <trkpt lat="46.305" lon="4.60239">
        <ele>463.49</ele>
        <time>2016-08-12T08:34:27Z</time>
      </trkpt>
      <trkpt lat="46.30476" lon="4.60245">
        <ele>461.57</ele>
        <time>2016-08-12T08:34:46Z</time>
      </trkpt>
      <trkpt lat="46.30452" lon="4.60252">
        <ele>458.69</ele>
        <time>2016-08-12T08:35:03Z</time>
      </trkpt>
      <trkpt lat="46.30434" lon="4.60256">
        <ele>456.76</ele>
        <time>2016-08-12T08:35:18Z</time>
      </trkpt>
      <trkpt lat="46.30411" lon="4.60262">
        <ele>456.76</ele>
        <time>2016-08-12T08:35:34Z</time>
      </trkpt>
      <trkpt lat="46.30383" lon="4.60269">
        <ele>457.24</ele>
        <time>2016-08-12T08:35:54Z</time>
      </trkpt>
      <trkpt lat="46.30353" lon="4.60277">
        <ele>455.32</ele>
        <time>2016-08-12T08:36:12Z</time>
      </trkpt>
      <trkpt lat="46.30325" lon="4.60284">
        <ele>453.4</ele>
        <time>2016-08-12T08:36:32Z</time>
      </trkpt>
      <trkpt lat="46.303" lon="4.60291">
        <ele>449.07</ele>
        <time>2016-08-12T08:36:50Z</time>
      </trkpt>
      <trkpt lat="46.30272" lon="4.60297">
        <ele>450.03</ele>
        <time>2016-08-12T08:37:10Z</time>
      </trkpt>
      <trkpt lat="46.30249" lon="4.60303">
        <ele>448.11</ele>
        <time>2016-08-12T08:37:27Z</time>
      </trkpt>
      <trkpt lat="46.30223" lon="4.60309">
        <ele>445.23</ele>
        <time>2016-08-12T08:37:46Z</time>
      </trkpt>
      <trkpt lat="46.30199" lon="4.60314">
        <ele>443.79</ele>
        <time>2016-08-12T08:38:03Z</time>
      </trkpt>
      <trkpt lat="46.30177" lon="4.60331">
        <ele>444.27</ele>
        <time>2016-08-12T08:38:22Z</time>
      </trkpt>
      <trkpt lat="46.30156" lon="4.60346">
        <ele>445.71</ele>
        <time>2016-08-12T08:38:37Z</time>
      </trkpt>
      <trkpt lat="46.30135" lon="4.60365">
        <ele>448.11</ele>
        <time>2016-08-12T08:38:54Z</time>
      </trkpt>
      <trkpt lat="46.30111" lon="4.60387">
        <ele>451</ele>
        <time>2016-08-12T08:39:14Z</time>
      </trkpt>
      <trkpt lat="46.30093" lon="4.60414">
        <ele>454.36</ele>
        <time>2016-08-12T08:39:31Z</time>
      </trkpt>
      <trkpt lat="46.30077" lon="4.60442">
        <ele>454.84</ele>
        <time>2016-08-12T08:39:48Z</time>
      </trkpt>
      <trkpt lat="46.30064" lon="4.60469">
        <ele>454.36</ele>
        <time>2016-08-12T08:40:04Z</time>
      </trkpt>
      <trkpt lat="46.30053" lon="4.60496">
        <ele>452.92</ele>
        <time>2016-08-12T08:40:20Z</time>
      </trkpt>
      <trkpt lat="46.30045" lon="4.60525">
        <ele>453.88</ele>
        <time>2016-08-12T08:40:36Z</time>
      </trkpt>
      <trkpt lat="46.30029" lon="4.60546">
        <ele>453.4</ele>
        <time>2016-08-12T08:40:50Z</time>
      </trkpt>
      <trkpt lat="46.30008" lon="4.6057">
        <ele>454.36</ele>
        <time>2016-08-12T08:41:08Z</time>
      </trkpt>
      <trkpt lat="46.29986" lon="4.60586">
        <ele>453.88</ele>
        <time>2016-08-12T08:41:26Z</time>
      </trkpt>
      <trkpt lat="46.29975" lon="4.60617">
        <ele>447.15</ele>
        <time>2016-08-12T08:41:45Z</time>
      </trkpt>
      <trkpt lat="46.29978" lon="4.60656">
        <ele>446.19</ele>
        <time>2016-08-12T08:42:05Z</time>
      </trkpt>
      <trkpt lat="46.29984" lon="4.60692">
        <ele>445.23</ele>
        <time>2016-08-12T08:42:23Z</time>
      </trkpt>
      <trkpt lat="46.29993" lon="4.60735">
        <ele>444.75</ele>
        <time>2016-08-12T08:42:44Z</time>
      </trkpt>
      <trkpt lat="46.30001" lon="4.60773">
        <ele>444.75</ele>
        <time>2016-08-12T08:43:04Z</time>
      </trkpt>
      <trkpt lat="46.30008" lon="4.60815">
        <ele>443.31</ele>
        <time>2016-08-12T08:43:26Z</time>
      </trkpt>
      <trkpt lat="46.30012" lon="4.60848">
        <ele>437.54</ele>
        <time>2016-08-12T08:43:44Z</time>
      </trkpt>
      <trkpt lat="46.30011" lon="4.60884">
        <ele>432.25</ele>
        <time>2016-08-12T08:44:02Z</time>
      </trkpt>
      <trkpt lat="46.29993" lon="4.60912">
        <ele>431.77</ele>
        <time>2016-08-12T08:44:21Z</time>
      </trkpt>
      <trkpt lat="46.29965" lon="4.60926">
        <ele>431.77</ele>
        <time>2016-08-12T08:44:41Z</time>
      </trkpt>
      <trkpt lat="46.2994" lon="4.60935">
        <ele>430.33</ele>
        <time>2016-08-12T08:45:00Z</time>
      </trkpt>
      <trkpt lat="46.29913" lon="4.60945">
        <ele>426.96</ele>
        <time>2016-08-12T08:45:20Z</time>
      </trkpt>
      <trkpt lat="46.29885" lon="4.60955">
        <ele>425.04</ele>
        <time>2016-08-12T08:45:41Z</time>
      </trkpt>
      <trkpt lat="46.29857" lon="4.60963">
        <ele>422.16</ele>
        <time>2016-08-12T08:46:01Z</time>
      </trkpt>
      <trkpt lat="46.29829" lon="4.60966">
        <ele>419.75</ele>
        <time>2016-08-12T08:46:22Z</time>
      </trkpt>
      <trkpt lat="46.29797" lon="4.60972">
        <ele>417.83</ele>
        <time>2016-08-12T08:46:45Z</time>
      </trkpt>
      <trkpt lat="46.29768" lon="4.60977">
        <ele>416.39</ele>
        <time>2016-08-12T08:47:05Z</time>
      </trkpt>
      <trkpt lat="46.29739" lon="4.60977">
        <ele>413.02</ele>
        <time>2016-08-12T08:47:26Z</time>
      </trkpt>
      <trkpt lat="46.29708" lon="4.60967">
        <ele>412.54</ele>
        <time>2016-08-12T08:47:49Z</time>
      </trkpt>
      <trkpt lat="46.29677" lon="4.60967">
        <ele>410.62</ele>
        <time>2016-08-12T08:48:11Z</time>
      </trkpt>
      <trkpt lat="46.29657" lon="4.60982">
        <ele>408.7</ele>
        <time>2016-08-12T08:48:29Z</time>
      </trkpt>
      <trkpt lat="46.29654" lon="4.60985">
        <ele>408.22</ele>
        <time>2016-08-12T08:48:33Z</time>
      </trkpt>
      <trkpt lat="46.29655" lon="4.61008">
        <ele>407.74</ele>
        <time>2016-08-12T08:48:45Z</time>
      </trkpt>
      <trkpt lat="46.29649" lon="4.61042">
        <ele>410.14</ele>
        <time>2016-08-12T08:49:02Z</time>
      </trkpt>
      <trkpt lat="46.2964" lon="4.6107">
        <ele>413.5</ele>
        <time>2016-08-12T08:49:17Z</time>
      </trkpt>
      <trkpt lat="46.29633" lon="4.61088">
        <ele>416.39</ele>
        <time>2016-08-12T08:49:29Z</time>
      </trkpt>
      <trkpt lat="46.2963" lon="4.61101">
        <ele>418.31</ele>
        <time>2016-08-12T08:49:36Z</time>
      </trkpt>
      <trkpt lat="46.29628" lon="4.61107">
        <ele>418.79</ele>
        <time>2016-08-12T08:49:40Z</time>
      </trkpt>
      <trkpt lat="46.29628" lon="4.61119">
        <ele>419.75</ele>
        <time>2016-08-12T08:49:48Z</time>
      </trkpt>
      <trkpt lat="46.29628" lon="4.61132">
        <ele>420.71</ele>
        <time>2016-08-12T08:49:55Z</time>
      </trkpt>
      <trkpt lat="46.29627" lon="4.61141">
        <ele>422.16</ele>
        <time>2016-08-12T08:50:00Z</time>
      </trkpt>
      <trkpt lat="46.29626" lon="4.61145">
        <ele>423.12</ele>
        <time>2016-08-12T08:50:03Z</time>
      </trkpt>
      <trkpt lat="46.29609" lon="4.61157">
        <ele>423.6</ele>
        <time>2016-08-12T08:50:18Z</time>
      </trkpt>
      <trkpt lat="46.29594" lon="4.61159">
        <ele>422.64</ele>
        <time>2016-08-12T08:50:31Z</time>
      </trkpt>
      <trkpt lat="46.29573" lon="4.61163">
        <ele>424.08</ele>
        <time>2016-08-12T08:50:48Z</time>
      </trkpt>
      <trkpt lat="46.29552" lon="4.61165">
        <ele>424.56</ele>
        <time>2016-08-12T08:51:04Z</time>
      </trkpt>
      <trkpt lat="46.29529" lon="4.61169">
        <ele>425.52</ele>
        <time>2016-08-12T08:51:21Z</time>
      </trkpt>
      <trkpt lat="46.29504" lon="4.61173">
        <ele>429.37</ele>
        <time>2016-08-12T08:51:39Z</time>
      </trkpt>
      <trkpt lat="46.29482" lon="4.61181">
        <ele>431.77</ele>
        <time>2016-08-12T08:51:56Z</time>
      </trkpt>
      <trkpt lat="46.29471" lon="4.61204">
        <ele>432.73</ele>
        <time>2016-08-12T08:52:10Z</time>
      </trkpt>
      <trkpt lat="46.29469" lon="4.61226">
        <ele>434.17</ele>
        <time>2016-08-12T08:52:23Z</time>
      </trkpt>
      <trkpt lat="46.29469" lon="4.61227">
        <ele>434.17</ele>
        <time>2016-08-12T08:52:24Z</time>
      </trkpt>
      <trkpt lat="46.29467" lon="4.61243">
        <ele>435.13</ele>
        <time>2016-08-12T08:52:32Z</time>
      </trkpt>
      <trkpt lat="46.29466" lon="4.61268">
        <ele>434.65</ele>
        <time>2016-08-12T08:52:46Z</time>
      </trkpt>
      <trkpt lat="46.29466" lon="4.61274">
        <ele>434.65</ele>
        <time>2016-08-12T08:52:49Z</time>
      </trkpt>
      <trkpt lat="46.29468" lon="4.61286">
        <ele>435.13</ele>
        <time>2016-08-12T08:52:56Z</time>
      </trkpt>
      <trkpt lat="46.2947" lon="4.61293">
        <ele>436.1</ele>
        <time>2016-08-12T08:53:00Z</time>
      </trkpt>
      <trkpt lat="46.29473" lon="4.61302">
        <ele>437.54</ele>
        <time>2016-08-12T08:53:06Z</time>
      </trkpt>
      <trkpt lat="46.29478" lon="4.61311">
        <ele>439.46</ele>
        <time>2016-08-12T08:53:12Z</time>
      </trkpt>
      <trkpt lat="46.2948" lon="4.61335">
        <ele>441.38</ele>
        <time>2016-08-12T08:53:26Z</time>
      </trkpt>
      <trkpt lat="46.29477" lon="4.61341">
        <ele>441.86</ele>
        <time>2016-08-12T08:53:31Z</time>
      </trkpt>
      <trkpt lat="46.29472" lon="4.6136">
        <ele>438.98</ele>
        <time>2016-08-12T08:53:54Z</time>
      </trkpt>
      <trkpt lat="46.2947" lon="4.61371">
        <ele>438.5</ele>
        <time>2016-08-12T08:54:00Z</time>
      </trkpt>
      <trkpt lat="46.29465" lon="4.61379">
        <ele>437.06</ele>
        <time>2016-08-12T08:54:32Z</time>
      </trkpt>
      <trkpt lat="46.29437" lon="4.61376">
        <ele>429.85</ele>
        <time>2016-08-12T08:55:10Z</time>
      </trkpt>
      <trkpt lat="46.29419" lon="4.61384">
        <ele>425.04</ele>
        <time>2016-08-12T08:55:28Z</time>
      </trkpt>
      <trkpt lat="46.29404" lon="4.61407">
        <ele>421.68</ele>
        <time>2016-08-12T08:55:45Z</time>
      </trkpt>
      <trkpt lat="46.29386" lon="4.61436">
        <ele>424.56</ele>
        <time>2016-08-12T08:56:04Z</time>
      </trkpt>
      <trkpt lat="46.29369" lon="4.61455">
        <ele>425.04</ele>
        <time>2016-08-12T08:56:21Z</time>
      </trkpt>
      <trkpt lat="46.29351" lon="4.61474">
        <ele>424.08</ele>
        <time>2016-08-12T08:56:38Z</time>
      </trkpt>
      <trkpt lat="46.29338" lon="4.61492">
        <ele>423.6</ele>
        <time>2016-08-12T08:56:52Z</time>
      </trkpt>
      <trkpt lat="46.29325" lon="4.61514">
        <ele>423.12</ele>
        <time>2016-08-12T08:57:07Z</time>
      </trkpt>
      <trkpt lat="46.29313" lon="4.61535">
        <ele>424.08</ele>
        <time>2016-08-12T08:57:22Z</time>
      </trkpt>
      <trkpt lat="46.29303" lon="4.61559">
        <ele>425.04</ele>
        <time>2016-08-12T08:57:37Z</time>
      </trkpt>
      <trkpt lat="46.29297" lon="4.6158">
        <ele>424.56</ele>
        <time>2016-08-12T08:57:50Z</time>
      </trkpt>
      <trkpt lat="46.29288" lon="4.61599">
        <ele>425.52</ele>
        <time>2016-08-12T08:58:03Z</time>
      </trkpt>
      <trkpt lat="46.29286" lon="4.61599">
        <ele>425.04</ele>
        <time>2016-08-12T08:58:04Z</time>
      </trkpt>
      <trkpt lat="46.29273" lon="4.61605">
        <ele>425.04</ele>
        <time>2016-08-12T08:58:19Z</time>
      </trkpt>
      <trkpt lat="46.29261" lon="4.61609">
        <ele>424.08</ele>
        <time>2016-08-12T08:58:34Z</time>
      </trkpt>
      <trkpt lat="46.29248" lon="4.61612">
        <ele>424.08</ele>
        <time>2016-08-12T08:58:51Z</time>
      </trkpt>
      <trkpt lat="46.29233" lon="4.61612">
        <ele>422.64</ele>
        <time>2016-08-12T08:59:06Z</time>
      </trkpt>
      <trkpt lat="46.29225" lon="4.61611">
        <ele>421.68</ele>
        <time>2016-08-12T08:59:20Z</time>
      </trkpt>
      <trkpt lat="46.29208" lon="4.61615">
        <ele>424.08</ele>
        <time>2016-08-12T08:59:35Z</time>
      </trkpt>
      <trkpt lat="46.29198" lon="4.61625">
        <ele>426</ele>
        <time>2016-08-12T08:59:49Z</time>
      </trkpt>
      <trkpt lat="46.29191" lon="4.6163">
        <ele>426.96</ele>
        <time>2016-08-12T09:00:05Z</time>
      </trkpt>
      <trkpt lat="46.29188" lon="4.6163">
        <ele>427.92</ele>
        <time>2016-08-12T09:00:08Z</time>
      </trkpt>
      <trkpt lat="46.2917" lon="4.61625">
        <ele>428.4</ele>
        <time>2016-08-12T09:00:23Z</time>
      </trkpt>
      <trkpt lat="46.29155" lon="4.61629">
        <ele>430.81</ele>
        <time>2016-08-12T09:00:37Z</time>
      </trkpt>
      <trkpt lat="46.29148" lon="4.61637">
        <ele>433.21</ele>
        <time>2016-08-12T09:00:51Z</time>
      </trkpt>
      <trkpt lat="46.29141" lon="4.61644">
        <ele>434.17</ele>
        <time>2016-08-12T09:01:01Z</time>
      </trkpt>
      <trkpt lat="46.29129" lon="4.6166">
        <ele>432.73</ele>
        <time>2016-08-12T09:01:21Z</time>
      </trkpt>
      <trkpt lat="46.29123" lon="4.61668">
        <ele>435.13</ele>
        <time>2016-08-12T09:01:33Z</time>
      </trkpt>
      <trkpt lat="46.2911" lon="4.61679">
        <ele>437.54</ele>
        <time>2016-08-12T09:01:46Z</time>
      </trkpt>
      <trkpt lat="46.29101" lon="4.61688">
        <ele>439.46</ele>
        <time>2016-08-12T09:01:59Z</time>
      </trkpt>
      <trkpt lat="46.29098" lon="4.61693">
        <ele>441.86</ele>
        <time>2016-08-12T09:02:17Z</time>
      </trkpt>
      <trkpt lat="46.29092" lon="4.61706">
        <ele>445.23</ele>
        <time>2016-08-12T09:02:31Z</time>
      </trkpt>
      <trkpt lat="46.29083" lon="4.61716">
        <ele>446.19</ele>
        <time>2016-08-12T09:02:47Z</time>
      </trkpt>
      <trkpt lat="46.29076" lon="4.61721">
        <ele>448.59</ele>
        <time>2016-08-12T09:03:00Z</time>
      </trkpt>
      <trkpt lat="46.29069" lon="4.61734">
        <ele>450.03</ele>
        <time>2016-08-12T09:03:13Z</time>
      </trkpt>
      <trkpt lat="46.2906" lon="4.6174">
        <ele>453.4</ele>
        <time>2016-08-12T09:03:26Z</time>
      </trkpt>
      <trkpt lat="46.29049" lon="4.61747">
        <ele>455.8</ele>
        <time>2016-08-12T09:03:42Z</time>
      </trkpt>
      <trkpt lat="46.29039" lon="4.61746">
        <ele>458.69</ele>
        <time>2016-08-12T09:04:00Z</time>
      </trkpt>
      <trkpt lat="46.2902" lon="4.61747">
        <ele>459.65</ele>
        <time>2016-08-12T09:04:19Z</time>
      </trkpt>
      <trkpt lat="46.29002" lon="4.61752">
        <ele>464.93</ele>
        <time>2016-08-12T09:04:51Z</time>
      </trkpt>
      <trkpt lat="46.28988" lon="4.61753">
        <ele>465.42</ele>
        <time>2016-08-12T09:05:05Z</time>
      </trkpt>
      <trkpt lat="46.28974" lon="4.61759">
        <ele>466.86</ele>
        <time>2016-08-12T09:05:22Z</time>
      </trkpt>
      <trkpt lat="46.28964" lon="4.61764">
        <ele>466.86</ele>
        <time>2016-08-12T09:05:36Z</time>
      </trkpt>
      <trkpt lat="46.28948" lon="4.6177">
        <ele>468.78</ele>
        <time>2016-08-12T09:05:56Z</time>
      </trkpt>
      <trkpt lat="46.28935" lon="4.61776">
        <ele>471.18</ele>
        <time>2016-08-12T09:06:10Z</time>
      </trkpt>
      <trkpt lat="46.28933" lon="4.61777">
        <ele>471.66</ele>
        <time>2016-08-12T09:06:13Z</time>
      </trkpt>
      <trkpt lat="46.2892" lon="4.6177">
        <ele>474.07</ele>
        <time>2016-08-12T09:06:27Z</time>
      </trkpt>
      <trkpt lat="46.2891" lon="4.61761">
        <ele>475.03</ele>
        <time>2016-08-12T09:06:40Z</time>
      </trkpt>
      <trkpt lat="46.28897" lon="4.61755">
        <ele>476.95</ele>
        <time>2016-08-12T09:06:55Z</time>
      </trkpt>
      <trkpt lat="46.28896" lon="4.61757">
        <ele>477.91</ele>
        <time>2016-08-12T09:06:58Z</time>
      </trkpt>
      <trkpt lat="46.2889" lon="4.61781">
        <ele>482.24</ele>
        <time>2016-08-12T09:07:16Z</time>
      </trkpt>
      <trkpt lat="46.28887" lon="4.61798">
        <ele>483.68</ele>
        <time>2016-08-12T09:07:29Z</time>
      </trkpt>
      <trkpt lat="46.28881" lon="4.61819">
        <ele>485.12</ele>
        <time>2016-08-12T09:07:44Z</time>
      </trkpt>
      <trkpt lat="46.28875" lon="4.61839">
        <ele>488.97</ele>
        <time>2016-08-12T09:08:00Z</time>
      </trkpt>
      <trkpt lat="46.28873" lon="4.61855">
        <ele>492.81</ele>
        <time>2016-08-12T09:08:21Z</time>
      </trkpt>
      <trkpt lat="46.2887" lon="4.61863">
        <ele>494.26</ele>
        <time>2016-08-12T09:08:37Z</time>
      </trkpt>
      <trkpt lat="46.28864" lon="4.61883">
        <ele>496.66</ele>
        <time>2016-08-12T09:08:55Z</time>
      </trkpt>
      <trkpt lat="46.28859" lon="4.61898">
        <ele>496.66</ele>
        <time>2016-08-12T09:09:09Z</time>
      </trkpt>
      <trkpt lat="46.28853" lon="4.61915">
        <ele>498.58</ele>
        <time>2016-08-12T09:09:29Z</time>
      </trkpt>
      <trkpt lat="46.28847" lon="4.61928">
        <ele>499.06</ele>
        <time>2016-08-12T09:09:40Z</time>
      </trkpt>
      <trkpt lat="46.28836" lon="4.61947">
        <ele>499.54</ele>
        <time>2016-08-12T09:10:02Z</time>
      </trkpt>
      <trkpt lat="46.28829" lon="4.61963">
        <ele>500.02</ele>
        <time>2016-08-12T09:10:16Z</time>
      </trkpt>
      <trkpt lat="46.28821" lon="4.61977">
        <ele>500.5</ele>
        <time>2016-08-12T09:10:32Z</time>
      </trkpt>
      <trkpt lat="46.28808" lon="4.61994">
        <ele>500.98</ele>
        <time>2016-08-12T09:10:53Z</time>
      </trkpt>
      <trkpt lat="46.28799" lon="4.62007">
        <ele>501.46</ele>
        <time>2016-08-12T09:11:07Z</time>
      </trkpt>
      <trkpt lat="46.28791" lon="4.6202">
        <ele>501.95</ele>
        <time>2016-08-12T09:11:23Z</time>
      </trkpt>
      <trkpt lat="46.28786" lon="4.62028">
        <ele>502.43</ele>
        <time>2016-08-12T09:11:32Z</time>
      </trkpt>
      <trkpt lat="46.2878" lon="4.6204">
        <ele>502.91</ele>
        <time>2016-08-12T09:11:45Z</time>
      </trkpt>
      <trkpt lat="46.28775" lon="4.62047">
        <ele>503.39</ele>
        <time>2016-08-12T09:11:59Z</time>
      </trkpt>
      <trkpt lat="46.28773" lon="4.62054">
        <ele>503.87</ele>
        <time>2016-08-12T09:12:06Z</time>
      </trkpt>
      <trkpt lat="46.28767" lon="4.62067">
        <ele>504.35</ele>
        <time>2016-08-12T09:12:18Z</time>
      </trkpt>
      <trkpt lat="46.28759" lon="4.6208">
        <ele>505.31</ele>
        <time>2016-08-12T09:12:35Z</time>
      </trkpt>
      <trkpt lat="46.28751" lon="4.62094">
        <ele>505.79</ele>
        <time>2016-08-12T09:12:52Z</time>
      </trkpt>
      <trkpt lat="46.28746" lon="4.6211">
        <ele>506.27</ele>
        <time>2016-08-12T09:13:05Z</time>
      </trkpt>
      <trkpt lat="46.28744" lon="4.62119">
        <ele>506.75</ele>
        <time>2016-08-12T09:13:19Z</time>
      </trkpt>
      <trkpt lat="46.28737" lon="4.62133">
        <ele>507.23</ele>
        <time>2016-08-12T09:13:35Z</time>
      </trkpt>
      <trkpt lat="46.28729" lon="4.62159">
        <ele>507.71</ele>
        <time>2016-08-12T09:13:53Z</time>
      </trkpt>
      <trkpt lat="46.28723" lon="4.62185">
        <ele>508.19</ele>
        <time>2016-08-12T09:14:09Z</time>
      </trkpt>
      <trkpt lat="46.28721" lon="4.62205">
        <ele>508.67</ele>
        <time>2016-08-12T09:14:25Z</time>
      </trkpt>
      <trkpt lat="46.28705" lon="4.62214">
        <ele>538.48</ele>
        <time>2016-08-12T09:14:42Z</time>
      </trkpt>
      <trkpt lat="46.28694" lon="4.62212">
        <ele>556.74</ele>
        <time>2016-08-12T09:15:08Z</time>
      </trkpt>
      <trkpt lat="46.28678" lon="4.62258">
        <ele>572.6</ele>
        <time>2016-08-12T09:16:38Z</time>
      </trkpt>
      <trkpt lat="46.28665" lon="4.62297">
        <ele>571.16</ele>
        <time>2016-08-12T09:17:11Z</time>
      </trkpt>
      <trkpt lat="46.28656" lon="4.62322">
        <ele>572.6</ele>
        <time>2016-08-12T09:17:29Z</time>
      </trkpt>
      <trkpt lat="46.2865" lon="4.62342">
        <ele>575.01</ele>
        <time>2016-08-12T09:17:43Z</time>
      </trkpt>
      <trkpt lat="46.28646" lon="4.62365">
        <ele>575.01</ele>
        <time>2016-08-12T09:18:03Z</time>
      </trkpt>
      <trkpt lat="46.28646" lon="4.62393">
        <ele>574.04</ele>
        <time>2016-08-12T09:18:23Z</time>
      </trkpt>
      <trkpt lat="46.28644" lon="4.62426">
        <ele>575.01</ele>
        <time>2016-08-12T09:18:42Z</time>
      </trkpt>
      <trkpt lat="46.28646" lon="4.62451">
        <ele>574.53</ele>
        <time>2016-08-12T09:19:00Z</time>
      </trkpt>
      <trkpt lat="46.28647" lon="4.62468">
        <ele>573.56</ele>
        <time>2016-08-12T09:19:13Z</time>
      </trkpt>
    </trkseg>
  </trk>
</gpx>